<?xml version="1.0" encoding="UTF-8" standalone="no" ?>
<gpx xmlns="http://www.topografix.com/GPX/1/1" xmlns:xsi="http://www.w3.org/2001/XMLSchema-instance" xsi:schemaLocation="http://www.topografix.com/GPX/1/1 http://www.topografix.com/GPX/1/1/gpx.xsd" version="1.1" creator="VisuGPX - https://www.visugpx.com">
  <metadata>
    <name>Meribel - Col de Chanrouge</name>
    <desc><![CDATA[avec Damien, coloc de Guillaume
Temps de foehn]]></desc>
  </metadata>
  <trk>
    <name><![CDATA[2021-02-23 Chanrouge gpx]]></name>
    <desc><![CDATA[avec Damien, coloc de Guillaume
Temps de foehn]]></desc>
    <trkseg>
      <trkpt lat="45.36754" lon="6.58465">
        <ele>1700.71</ele>
        <time>2021-02-22T07:55:02Z</time>
      </trkpt>
      <trkpt lat="45.36748" lon="6.58474">
        <ele>1701.19</ele>
        <time>2021-02-22T07:55:11Z</time>
      </trkpt>
      <trkpt lat="45.3674" lon="6.58482">
        <ele>1701.19</ele>
        <time>2021-02-22T07:55:21Z</time>
      </trkpt>
      <trkpt lat="45.36731" lon="6.58486">
        <ele>1702.15</ele>
        <time>2021-02-22T07:55:45Z</time>
      </trkpt>
      <trkpt lat="45.36723" lon="6.58493">
        <ele>1702.15</ele>
        <time>2021-02-22T07:55:55Z</time>
      </trkpt>
      <trkpt lat="45.36718" lon="6.58496">
        <ele>1701.67</ele>
        <time>2021-02-22T07:57:07Z</time>
      </trkpt>
      <trkpt lat="45.36713" lon="6.58505">
        <ele>1701.67</ele>
        <time>2021-02-22T07:57:16Z</time>
      </trkpt>
      <trkpt lat="45.36705" lon="6.58514">
        <ele>1701.19</ele>
        <time>2021-02-22T07:57:27Z</time>
      </trkpt>
      <trkpt lat="45.36699" lon="6.58524">
        <ele>1701.19</ele>
        <time>2021-02-22T07:57:35Z</time>
      </trkpt>
      <trkpt lat="45.36693" lon="6.58533">
        <ele>1701.19</ele>
        <time>2021-02-22T07:57:44Z</time>
      </trkpt>
      <trkpt lat="45.36686" lon="6.58542">
        <ele>1701.67</ele>
        <time>2021-02-22T07:57:53Z</time>
      </trkpt>
      <trkpt lat="45.36678" lon="6.58549">
        <ele>1702.15</ele>
        <time>2021-02-22T07:58:02Z</time>
      </trkpt>
      <trkpt lat="45.36669" lon="6.58555">
        <ele>1703.11</ele>
        <time>2021-02-22T07:58:12Z</time>
      </trkpt>
      <trkpt lat="45.3666" lon="6.58558">
        <ele>1704.07</ele>
        <time>2021-02-22T07:58:24Z</time>
      </trkpt>
      <trkpt lat="45.3665" lon="6.5856">
        <ele>1705.04</ele>
        <time>2021-02-22T07:58:35Z</time>
      </trkpt>
      <trkpt lat="45.3664" lon="6.58562">
        <ele>1706</ele>
        <time>2021-02-22T07:58:46Z</time>
      </trkpt>
      <trkpt lat="45.36629" lon="6.58562">
        <ele>1706.96</ele>
        <time>2021-02-22T07:58:57Z</time>
      </trkpt>
      <trkpt lat="45.36619" lon="6.58561">
        <ele>1708.4</ele>
        <time>2021-02-22T07:59:07Z</time>
      </trkpt>
      <trkpt lat="45.36608" lon="6.58556">
        <ele>1709.36</ele>
        <time>2021-02-22T07:59:18Z</time>
      </trkpt>
      <trkpt lat="45.36598" lon="6.58551">
        <ele>1710.8</ele>
        <time>2021-02-22T07:59:27Z</time>
      </trkpt>
      <trkpt lat="45.36589" lon="6.58548">
        <ele>1710.8</ele>
        <time>2021-02-22T07:59:36Z</time>
      </trkpt>
      <trkpt lat="45.36579" lon="6.58546">
        <ele>1711.76</ele>
        <time>2021-02-22T07:59:47Z</time>
      </trkpt>
      <trkpt lat="45.36569" lon="6.58545">
        <ele>1711.76</ele>
        <time>2021-02-22T07:59:57Z</time>
      </trkpt>
      <trkpt lat="45.3656" lon="6.58545">
        <ele>1712.25</ele>
        <time>2021-02-22T08:00:05Z</time>
      </trkpt>
      <trkpt lat="45.36552" lon="6.58546">
        <ele>1712.25</ele>
        <time>2021-02-22T08:00:14Z</time>
      </trkpt>
      <trkpt lat="45.36542" lon="6.58546">
        <ele>1712.25</ele>
        <time>2021-02-22T08:00:23Z</time>
      </trkpt>
      <trkpt lat="45.36533" lon="6.58547">
        <ele>1712.25</ele>
        <time>2021-02-22T08:00:31Z</time>
      </trkpt>
      <trkpt lat="45.36523" lon="6.58547">
        <ele>1712.25</ele>
        <time>2021-02-22T08:00:40Z</time>
      </trkpt>
      <trkpt lat="45.36512" lon="6.58549">
        <ele>1712.25</ele>
        <time>2021-02-22T08:00:50Z</time>
      </trkpt>
      <trkpt lat="45.36503" lon="6.58551">
        <ele>1711.76</ele>
        <time>2021-02-22T08:00:59Z</time>
      </trkpt>
      <trkpt lat="45.36493" lon="6.58554">
        <ele>1711.76</ele>
        <time>2021-02-22T08:01:07Z</time>
      </trkpt>
      <trkpt lat="45.36485" lon="6.58558">
        <ele>1711.76</ele>
        <time>2021-02-22T08:01:16Z</time>
      </trkpt>
      <trkpt lat="45.36475" lon="6.58562">
        <ele>1711.76</ele>
        <time>2021-02-22T08:01:25Z</time>
      </trkpt>
      <trkpt lat="45.36466" lon="6.58567">
        <ele>1711.76</ele>
        <time>2021-02-22T08:01:33Z</time>
      </trkpt>
      <trkpt lat="45.36458" lon="6.58573">
        <ele>1711.76</ele>
        <time>2021-02-22T08:01:41Z</time>
      </trkpt>
      <trkpt lat="45.36449" lon="6.5858">
        <ele>1711.76</ele>
        <time>2021-02-22T08:01:50Z</time>
      </trkpt>
      <trkpt lat="45.36438" lon="6.58584">
        <ele>1712.25</ele>
        <time>2021-02-22T08:01:59Z</time>
      </trkpt>
      <trkpt lat="45.36429" lon="6.58588">
        <ele>1712.25</ele>
        <time>2021-02-22T08:02:06Z</time>
      </trkpt>
      <trkpt lat="45.3642" lon="6.58594">
        <ele>1711.76</ele>
        <time>2021-02-22T08:02:16Z</time>
      </trkpt>
      <trkpt lat="45.36413" lon="6.58602">
        <ele>1711.76</ele>
        <time>2021-02-22T08:02:25Z</time>
      </trkpt>
      <trkpt lat="45.36405" lon="6.58611">
        <ele>1712.25</ele>
        <time>2021-02-22T08:02:33Z</time>
      </trkpt>
      <trkpt lat="45.36399" lon="6.58621">
        <ele>1712.25</ele>
        <time>2021-02-22T08:02:41Z</time>
      </trkpt>
      <trkpt lat="45.36393" lon="6.58631">
        <ele>1712.25</ele>
        <time>2021-02-22T08:02:50Z</time>
      </trkpt>
      <trkpt lat="45.36386" lon="6.58641">
        <ele>1712.73</ele>
        <time>2021-02-22T08:02:59Z</time>
      </trkpt>
      <trkpt lat="45.36378" lon="6.58651">
        <ele>1712.73</ele>
        <time>2021-02-22T08:03:08Z</time>
      </trkpt>
      <trkpt lat="45.36371" lon="6.5866">
        <ele>1712.73</ele>
        <time>2021-02-22T08:03:17Z</time>
      </trkpt>
      <trkpt lat="45.36365" lon="6.58672">
        <ele>1712.73</ele>
        <time>2021-02-22T08:03:25Z</time>
      </trkpt>
      <trkpt lat="45.3636" lon="6.58684">
        <ele>1712.25</ele>
        <time>2021-02-22T08:03:34Z</time>
      </trkpt>
      <trkpt lat="45.36354" lon="6.58695">
        <ele>1712.73</ele>
        <time>2021-02-22T08:03:43Z</time>
      </trkpt>
      <trkpt lat="45.36349" lon="6.58708">
        <ele>1713.69</ele>
        <time>2021-02-22T08:03:53Z</time>
      </trkpt>
      <trkpt lat="45.36343" lon="6.58719">
        <ele>1714.17</ele>
        <time>2021-02-22T08:04:03Z</time>
      </trkpt>
      <trkpt lat="45.36336" lon="6.58727">
        <ele>1714.65</ele>
        <time>2021-02-22T08:04:12Z</time>
      </trkpt>
      <trkpt lat="45.36329" lon="6.58735">
        <ele>1714.65</ele>
        <time>2021-02-22T08:04:20Z</time>
      </trkpt>
      <trkpt lat="45.36321" lon="6.58742">
        <ele>1714.65</ele>
        <time>2021-02-22T08:04:27Z</time>
      </trkpt>
      <trkpt lat="45.36313" lon="6.5875">
        <ele>1714.65</ele>
        <time>2021-02-22T08:04:35Z</time>
      </trkpt>
      <trkpt lat="45.36305" lon="6.58758">
        <ele>1714.17</ele>
        <time>2021-02-22T08:04:43Z</time>
      </trkpt>
      <trkpt lat="45.36296" lon="6.58764">
        <ele>1714.17</ele>
        <time>2021-02-22T08:04:51Z</time>
      </trkpt>
      <trkpt lat="45.36289" lon="6.58771">
        <ele>1714.17</ele>
        <time>2021-02-22T08:04:59Z</time>
      </trkpt>
      <trkpt lat="45.36281" lon="6.58778">
        <ele>1714.17</ele>
        <time>2021-02-22T08:05:07Z</time>
      </trkpt>
      <trkpt lat="45.3627" lon="6.58784">
        <ele>1714.17</ele>
        <time>2021-02-22T08:05:16Z</time>
      </trkpt>
      <trkpt lat="45.36261" lon="6.58789">
        <ele>1714.17</ele>
        <time>2021-02-22T08:05:24Z</time>
      </trkpt>
      <trkpt lat="45.36254" lon="6.58794">
        <ele>1714.17</ele>
        <time>2021-02-22T08:05:31Z</time>
      </trkpt>
      <trkpt lat="45.36244" lon="6.588">
        <ele>1713.21</ele>
        <time>2021-02-22T08:05:40Z</time>
      </trkpt>
      <trkpt lat="45.36235" lon="6.58806">
        <ele>1712.73</ele>
        <time>2021-02-22T08:05:49Z</time>
      </trkpt>
      <trkpt lat="45.36226" lon="6.58813">
        <ele>1712.73</ele>
        <time>2021-02-22T08:05:57Z</time>
      </trkpt>
      <trkpt lat="45.36218" lon="6.58819">
        <ele>1712.73</ele>
        <time>2021-02-22T08:06:04Z</time>
      </trkpt>
      <trkpt lat="45.36207" lon="6.58823">
        <ele>1712.25</ele>
        <time>2021-02-22T08:06:12Z</time>
      </trkpt>
      <trkpt lat="45.36198" lon="6.58826">
        <ele>1712.25</ele>
        <time>2021-02-22T08:06:20Z</time>
      </trkpt>
      <trkpt lat="45.36188" lon="6.58827">
        <ele>1712.25</ele>
        <time>2021-02-22T08:06:28Z</time>
      </trkpt>
      <trkpt lat="45.36178" lon="6.58827">
        <ele>1712.25</ele>
        <time>2021-02-22T08:06:36Z</time>
      </trkpt>
      <trkpt lat="45.36169" lon="6.58827">
        <ele>1712.25</ele>
        <time>2021-02-22T08:06:44Z</time>
      </trkpt>
      <trkpt lat="45.36158" lon="6.58826">
        <ele>1712.25</ele>
        <time>2021-02-22T08:06:53Z</time>
      </trkpt>
      <trkpt lat="45.36149" lon="6.58825">
        <ele>1712.25</ele>
        <time>2021-02-22T08:07:01Z</time>
      </trkpt>
      <trkpt lat="45.36139" lon="6.58824">
        <ele>1712.25</ele>
        <time>2021-02-22T08:07:09Z</time>
      </trkpt>
      <trkpt lat="45.36129" lon="6.58824">
        <ele>1712.25</ele>
        <time>2021-02-22T08:07:16Z</time>
      </trkpt>
      <trkpt lat="45.3612" lon="6.58826">
        <ele>1712.25</ele>
        <time>2021-02-22T08:07:25Z</time>
      </trkpt>
      <trkpt lat="45.3611" lon="6.58827">
        <ele>1712.25</ele>
        <time>2021-02-22T08:07:34Z</time>
      </trkpt>
      <trkpt lat="45.36101" lon="6.58826">
        <ele>1712.25</ele>
        <time>2021-02-22T08:07:41Z</time>
      </trkpt>
      <trkpt lat="45.36091" lon="6.58828">
        <ele>1711.76</ele>
        <time>2021-02-22T08:07:50Z</time>
      </trkpt>
      <trkpt lat="45.36083" lon="6.58832">
        <ele>1711.76</ele>
        <time>2021-02-22T08:07:58Z</time>
      </trkpt>
      <trkpt lat="45.36074" lon="6.58837">
        <ele>1711.28</ele>
        <time>2021-02-22T08:08:06Z</time>
      </trkpt>
      <trkpt lat="45.36066" lon="6.58845">
        <ele>1711.28</ele>
        <time>2021-02-22T08:08:14Z</time>
      </trkpt>
      <trkpt lat="45.36059" lon="6.58852">
        <ele>1711.28</ele>
        <time>2021-02-22T08:08:22Z</time>
      </trkpt>
      <trkpt lat="45.36051" lon="6.58859">
        <ele>1711.28</ele>
        <time>2021-02-22T08:08:30Z</time>
      </trkpt>
      <trkpt lat="45.36044" lon="6.58866">
        <ele>1711.28</ele>
        <time>2021-02-22T08:08:37Z</time>
      </trkpt>
      <trkpt lat="45.36036" lon="6.58874">
        <ele>1711.28</ele>
        <time>2021-02-22T08:08:46Z</time>
      </trkpt>
      <trkpt lat="45.36028" lon="6.58881">
        <ele>1711.28</ele>
        <time>2021-02-22T08:08:54Z</time>
      </trkpt>
      <trkpt lat="45.3602" lon="6.58889">
        <ele>1711.28</ele>
        <time>2021-02-22T08:09:02Z</time>
      </trkpt>
      <trkpt lat="45.36012" lon="6.58898">
        <ele>1711.28</ele>
        <time>2021-02-22T08:09:10Z</time>
      </trkpt>
      <trkpt lat="45.36005" lon="6.58905">
        <ele>1711.28</ele>
        <time>2021-02-22T08:09:17Z</time>
      </trkpt>
      <trkpt lat="45.35998" lon="6.58912">
        <ele>1711.28</ele>
        <time>2021-02-22T08:09:24Z</time>
      </trkpt>
      <trkpt lat="45.35989" lon="6.58919">
        <ele>1711.28</ele>
        <time>2021-02-22T08:09:32Z</time>
      </trkpt>
      <trkpt lat="45.35982" lon="6.58928">
        <ele>1711.28</ele>
        <time>2021-02-22T08:09:40Z</time>
      </trkpt>
      <trkpt lat="45.35975" lon="6.58938">
        <ele>1712.73</ele>
        <time>2021-02-22T08:09:49Z</time>
      </trkpt>
      <trkpt lat="45.35969" lon="6.58947">
        <ele>1712.73</ele>
        <time>2021-02-22T08:09:57Z</time>
      </trkpt>
      <trkpt lat="45.35962" lon="6.58958">
        <ele>1712.73</ele>
        <time>2021-02-22T08:10:06Z</time>
      </trkpt>
      <trkpt lat="45.35955" lon="6.58968">
        <ele>1713.21</ele>
        <time>2021-02-22T08:10:15Z</time>
      </trkpt>
      <trkpt lat="45.35948" lon="6.58979">
        <ele>1714.17</ele>
        <time>2021-02-22T08:10:25Z</time>
      </trkpt>
      <trkpt lat="45.35942" lon="6.58988">
        <ele>1714.17</ele>
        <time>2021-02-22T08:10:34Z</time>
      </trkpt>
      <trkpt lat="45.35936" lon="6.58998">
        <ele>1714.17</ele>
        <time>2021-02-22T08:10:42Z</time>
      </trkpt>
      <trkpt lat="45.35929" lon="6.59007">
        <ele>1714.17</ele>
        <time>2021-02-22T08:10:50Z</time>
      </trkpt>
      <trkpt lat="45.35921" lon="6.59015">
        <ele>1714.17</ele>
        <time>2021-02-22T08:10:58Z</time>
      </trkpt>
      <trkpt lat="45.35913" lon="6.59022">
        <ele>1714.17</ele>
        <time>2021-02-22T08:11:07Z</time>
      </trkpt>
      <trkpt lat="45.35905" lon="6.59031">
        <ele>1714.17</ele>
        <time>2021-02-22T08:11:16Z</time>
      </trkpt>
      <trkpt lat="45.35896" lon="6.59038">
        <ele>1714.17</ele>
        <time>2021-02-22T08:11:27Z</time>
      </trkpt>
      <trkpt lat="45.35895" lon="6.59045">
        <ele>1715.13</ele>
        <time>2021-02-22T08:11:40Z</time>
      </trkpt>
      <trkpt lat="45.35894" lon="6.59052">
        <ele>1714.65</ele>
        <time>2021-02-22T08:12:58Z</time>
      </trkpt>
      <trkpt lat="45.35893" lon="6.59066">
        <ele>1716.09</ele>
        <time>2021-02-22T08:13:13Z</time>
      </trkpt>
      <trkpt lat="45.3589" lon="6.59076">
        <ele>1718.01</ele>
        <time>2021-02-22T08:13:27Z</time>
      </trkpt>
      <trkpt lat="45.35887" lon="6.59089">
        <ele>1720.42</ele>
        <time>2021-02-22T08:13:40Z</time>
      </trkpt>
      <trkpt lat="45.35891" lon="6.59101">
        <ele>1721.86</ele>
        <time>2021-02-22T08:13:54Z</time>
      </trkpt>
      <trkpt lat="45.35894" lon="6.59115">
        <ele>1722.82</ele>
        <time>2021-02-22T08:14:07Z</time>
      </trkpt>
      <trkpt lat="45.35899" lon="6.59127">
        <ele>1725.22</ele>
        <time>2021-02-22T08:14:19Z</time>
      </trkpt>
      <trkpt lat="45.35905" lon="6.59137">
        <ele>1727.15</ele>
        <time>2021-02-22T08:14:33Z</time>
      </trkpt>
      <trkpt lat="45.35907" lon="6.59149">
        <ele>1729.07</ele>
        <time>2021-02-22T08:14:47Z</time>
      </trkpt>
      <trkpt lat="45.35908" lon="6.59165">
        <ele>1730.99</ele>
        <time>2021-02-22T08:15:01Z</time>
      </trkpt>
      <trkpt lat="45.35904" lon="6.59178">
        <ele>1732.43</ele>
        <time>2021-02-22T08:15:14Z</time>
      </trkpt>
      <trkpt lat="45.35899" lon="6.59192">
        <ele>1733.88</ele>
        <time>2021-02-22T08:15:27Z</time>
      </trkpt>
      <trkpt lat="45.35893" lon="6.59204">
        <ele>1735.8</ele>
        <time>2021-02-22T08:15:41Z</time>
      </trkpt>
      <trkpt lat="45.35885" lon="6.59216">
        <ele>1737.24</ele>
        <time>2021-02-22T08:15:54Z</time>
      </trkpt>
      <trkpt lat="45.35878" lon="6.59226">
        <ele>1738.68</ele>
        <time>2021-02-22T08:16:06Z</time>
      </trkpt>
      <trkpt lat="45.35871" lon="6.59236">
        <ele>1740.12</ele>
        <time>2021-02-22T08:16:20Z</time>
      </trkpt>
      <trkpt lat="45.3586" lon="6.59241">
        <ele>1741.57</ele>
        <time>2021-02-22T08:16:33Z</time>
      </trkpt>
      <trkpt lat="45.35852" lon="6.59245">
        <ele>1742.05</ele>
        <time>2021-02-22T08:16:43Z</time>
      </trkpt>
      <trkpt lat="45.35844" lon="6.59253">
        <ele>1742.53</ele>
        <time>2021-02-22T08:16:53Z</time>
      </trkpt>
      <trkpt lat="45.35837" lon="6.59263">
        <ele>1743.49</ele>
        <time>2021-02-22T08:17:04Z</time>
      </trkpt>
      <trkpt lat="45.35832" lon="6.59273">
        <ele>1744.93</ele>
        <time>2021-02-22T08:17:16Z</time>
      </trkpt>
      <trkpt lat="45.35828" lon="6.59285">
        <ele>1745.41</ele>
        <time>2021-02-22T08:17:25Z</time>
      </trkpt>
      <trkpt lat="45.35827" lon="6.59297">
        <ele>1745.89</ele>
        <time>2021-02-22T08:17:34Z</time>
      </trkpt>
      <trkpt lat="45.35823" lon="6.59311">
        <ele>1746.85</ele>
        <time>2021-02-22T08:17:44Z</time>
      </trkpt>
      <trkpt lat="45.35816" lon="6.5932">
        <ele>1748.29</ele>
        <time>2021-02-22T08:17:57Z</time>
      </trkpt>
      <trkpt lat="45.35807" lon="6.5932">
        <ele>1750.22</ele>
        <time>2021-02-22T08:18:11Z</time>
      </trkpt>
      <trkpt lat="45.35798" lon="6.59322">
        <ele>1751.66</ele>
        <time>2021-02-22T08:18:23Z</time>
      </trkpt>
      <trkpt lat="45.35796" lon="6.59335">
        <ele>1752.14</ele>
        <time>2021-02-22T08:18:33Z</time>
      </trkpt>
      <trkpt lat="45.35795" lon="6.59347">
        <ele>1753.58</ele>
        <time>2021-02-22T08:18:44Z</time>
      </trkpt>
      <trkpt lat="45.35793" lon="6.59359">
        <ele>1755.02</ele>
        <time>2021-02-22T08:18:56Z</time>
      </trkpt>
      <trkpt lat="45.35789" lon="6.59371">
        <ele>1755.99</ele>
        <time>2021-02-22T08:19:07Z</time>
      </trkpt>
      <trkpt lat="45.35783" lon="6.59382">
        <ele>1757.43</ele>
        <time>2021-02-22T08:19:19Z</time>
      </trkpt>
      <trkpt lat="45.35776" lon="6.59391">
        <ele>1759.35</ele>
        <time>2021-02-22T08:19:32Z</time>
      </trkpt>
      <trkpt lat="45.3577" lon="6.59401">
        <ele>1761.27</ele>
        <time>2021-02-22T08:19:45Z</time>
      </trkpt>
      <trkpt lat="45.35765" lon="6.59412">
        <ele>1762.23</ele>
        <time>2021-02-22T08:19:57Z</time>
      </trkpt>
      <trkpt lat="45.35761" lon="6.59424">
        <ele>1763.68</ele>
        <time>2021-02-22T08:20:08Z</time>
      </trkpt>
      <trkpt lat="45.3576" lon="6.59436">
        <ele>1764.64</ele>
        <time>2021-02-22T08:20:20Z</time>
      </trkpt>
      <trkpt lat="45.35759" lon="6.59449">
        <ele>1765.12</ele>
        <time>2021-02-22T08:20:30Z</time>
      </trkpt>
      <trkpt lat="45.35758" lon="6.59462">
        <ele>1765.6</ele>
        <time>2021-02-22T08:20:39Z</time>
      </trkpt>
      <trkpt lat="45.35758" lon="6.59474">
        <ele>1765.6</ele>
        <time>2021-02-22T08:20:48Z</time>
      </trkpt>
      <trkpt lat="45.35757" lon="6.59488">
        <ele>1766.08</ele>
        <time>2021-02-22T08:20:59Z</time>
      </trkpt>
      <trkpt lat="45.35756" lon="6.59502">
        <ele>1767.04</ele>
        <time>2021-02-22T08:21:10Z</time>
      </trkpt>
      <trkpt lat="45.35755" lon="6.59514">
        <ele>1767.52</ele>
        <time>2021-02-22T08:21:19Z</time>
      </trkpt>
      <trkpt lat="45.35753" lon="6.59527">
        <ele>1768.48</ele>
        <time>2021-02-22T08:21:29Z</time>
      </trkpt>
      <trkpt lat="45.35751" lon="6.59541">
        <ele>1769.92</ele>
        <time>2021-02-22T08:21:40Z</time>
      </trkpt>
      <trkpt lat="45.35747" lon="6.59554">
        <ele>1771.37</ele>
        <time>2021-02-22T08:21:52Z</time>
      </trkpt>
      <trkpt lat="45.35741" lon="6.59565">
        <ele>1772.81</ele>
        <time>2021-02-22T08:22:03Z</time>
      </trkpt>
      <trkpt lat="45.35736" lon="6.59576">
        <ele>1773.29</ele>
        <time>2021-02-22T08:22:13Z</time>
      </trkpt>
      <trkpt lat="45.35732" lon="6.59587">
        <ele>1773.29</ele>
        <time>2021-02-22T08:22:21Z</time>
      </trkpt>
      <trkpt lat="45.35726" lon="6.59597">
        <ele>1774.25</ele>
        <time>2021-02-22T08:22:31Z</time>
      </trkpt>
      <trkpt lat="45.35722" lon="6.59609">
        <ele>1775.21</ele>
        <time>2021-02-22T08:22:42Z</time>
      </trkpt>
      <trkpt lat="45.35718" lon="6.5962">
        <ele>1776.65</ele>
        <time>2021-02-22T08:22:54Z</time>
      </trkpt>
      <trkpt lat="45.35713" lon="6.59631">
        <ele>1778.1</ele>
        <time>2021-02-22T08:23:04Z</time>
      </trkpt>
      <trkpt lat="45.35709" lon="6.59642">
        <ele>1779.06</ele>
        <time>2021-02-22T08:23:15Z</time>
      </trkpt>
      <trkpt lat="45.35705" lon="6.59654">
        <ele>1780.5</ele>
        <time>2021-02-22T08:23:25Z</time>
      </trkpt>
      <trkpt lat="45.35701" lon="6.59666">
        <ele>1780.5</ele>
        <time>2021-02-22T08:23:33Z</time>
      </trkpt>
      <trkpt lat="45.35699" lon="6.59678">
        <ele>1780.98</ele>
        <time>2021-02-22T08:23:42Z</time>
      </trkpt>
      <trkpt lat="45.35698" lon="6.59692">
        <ele>1781.46</ele>
        <time>2021-02-22T08:23:51Z</time>
      </trkpt>
      <trkpt lat="45.35697" lon="6.59705">
        <ele>1781.46</ele>
        <time>2021-02-22T08:24:00Z</time>
      </trkpt>
      <trkpt lat="45.35699" lon="6.59717">
        <ele>1781.46</ele>
        <time>2021-02-22T08:24:08Z</time>
      </trkpt>
      <trkpt lat="45.35703" lon="6.5973">
        <ele>1779.54</ele>
        <time>2021-02-22T08:24:14Z</time>
      </trkpt>
      <trkpt lat="45.35706" lon="6.59743">
        <ele>1778.1</ele>
        <time>2021-02-22T08:24:19Z</time>
      </trkpt>
      <trkpt lat="45.35707" lon="6.59759">
        <ele>1775.69</ele>
        <time>2021-02-22T08:24:23Z</time>
      </trkpt>
      <trkpt lat="45.35702" lon="6.59771">
        <ele>1774.25</ele>
        <time>2021-02-22T08:24:27Z</time>
      </trkpt>
      <trkpt lat="45.35694" lon="6.59776">
        <ele>1772.81</ele>
        <time>2021-02-22T08:24:33Z</time>
      </trkpt>
      <trkpt lat="45.35684" lon="6.59777">
        <ele>1772.81</ele>
        <time>2021-02-22T08:24:40Z</time>
      </trkpt>
      <trkpt lat="45.35675" lon="6.59774">
        <ele>1772.33</ele>
        <time>2021-02-22T08:24:48Z</time>
      </trkpt>
      <trkpt lat="45.35665" lon="6.59775">
        <ele>1771.85</ele>
        <time>2021-02-22T08:24:57Z</time>
      </trkpt>
      <trkpt lat="45.35656" lon="6.59781">
        <ele>1771.85</ele>
        <time>2021-02-22T08:25:06Z</time>
      </trkpt>
      <trkpt lat="45.35646" lon="6.59786">
        <ele>1773.77</ele>
        <time>2021-02-22T08:25:18Z</time>
      </trkpt>
      <trkpt lat="45.35634" lon="6.59787">
        <ele>1774.73</ele>
        <time>2021-02-22T08:25:29Z</time>
      </trkpt>
      <trkpt lat="45.35628" lon="6.59791">
        <ele>1775.69</ele>
        <time>2021-02-22T08:25:41Z</time>
      </trkpt>
      <trkpt lat="45.35631" lon="6.59799">
        <ele>1777.13</ele>
        <time>2021-02-22T08:25:53Z</time>
      </trkpt>
      <trkpt lat="45.35629" lon="6.59813">
        <ele>1778.58</ele>
        <time>2021-02-22T08:26:07Z</time>
      </trkpt>
      <trkpt lat="45.35624" lon="6.59823">
        <ele>1780.98</ele>
        <time>2021-02-22T08:26:20Z</time>
      </trkpt>
      <trkpt lat="45.35616" lon="6.59833">
        <ele>1782.42</ele>
        <time>2021-02-22T08:26:43Z</time>
      </trkpt>
      <trkpt lat="45.35607" lon="6.5984">
        <ele>1785.79</ele>
        <time>2021-02-22T08:27:00Z</time>
      </trkpt>
      <trkpt lat="45.35606" lon="6.59849">
        <ele>1787.71</ele>
        <time>2021-02-22T08:27:15Z</time>
      </trkpt>
      <trkpt lat="45.35609" lon="6.59861">
        <ele>1789.63</ele>
        <time>2021-02-22T08:27:28Z</time>
      </trkpt>
      <trkpt lat="45.35613" lon="6.59872">
        <ele>1791.55</ele>
        <time>2021-02-22T08:27:43Z</time>
      </trkpt>
      <trkpt lat="45.35617" lon="6.59881">
        <ele>1793.96</ele>
        <time>2021-02-22T08:27:56Z</time>
      </trkpt>
      <trkpt lat="45.35621" lon="6.59893">
        <ele>1795.88</ele>
        <time>2021-02-22T08:28:10Z</time>
      </trkpt>
      <trkpt lat="45.35624" lon="6.59905">
        <ele>1798.28</ele>
        <time>2021-02-22T08:28:24Z</time>
      </trkpt>
      <trkpt lat="45.35626" lon="6.59917">
        <ele>1800.21</ele>
        <time>2021-02-22T08:28:39Z</time>
      </trkpt>
      <trkpt lat="45.35628" lon="6.59929">
        <ele>1802.13</ele>
        <time>2021-02-22T08:28:54Z</time>
      </trkpt>
      <trkpt lat="45.35629" lon="6.59942">
        <ele>1804.53</ele>
        <time>2021-02-22T08:29:09Z</time>
      </trkpt>
      <trkpt lat="45.35631" lon="6.59957">
        <ele>1806.94</ele>
        <time>2021-02-22T08:29:26Z</time>
      </trkpt>
      <trkpt lat="45.3563" lon="6.59968">
        <ele>1807.9</ele>
        <time>2021-02-22T08:30:34Z</time>
      </trkpt>
      <trkpt lat="45.3563" lon="6.59979">
        <ele>1809.34</ele>
        <time>2021-02-22T08:30:44Z</time>
      </trkpt>
      <trkpt lat="45.35628" lon="6.59993">
        <ele>1811.74</ele>
        <time>2021-02-22T08:30:57Z</time>
      </trkpt>
      <trkpt lat="45.35627" lon="6.60006">
        <ele>1814.15</ele>
        <time>2021-02-22T08:31:11Z</time>
      </trkpt>
      <trkpt lat="45.35627" lon="6.60018">
        <ele>1815.11</ele>
        <time>2021-02-22T08:31:22Z</time>
      </trkpt>
      <trkpt lat="45.35626" lon="6.6003">
        <ele>1817.03</ele>
        <time>2021-02-22T08:31:35Z</time>
      </trkpt>
      <trkpt lat="45.3563" lon="6.60032">
        <ele>1819.91</ele>
        <time>2021-02-22T08:31:51Z</time>
      </trkpt>
      <trkpt lat="45.35639" lon="6.60037">
        <ele>1821.35</ele>
        <time>2021-02-22T08:32:08Z</time>
      </trkpt>
      <trkpt lat="45.35643" lon="6.60048">
        <ele>1823.76</ele>
        <time>2021-02-22T08:32:22Z</time>
      </trkpt>
      <trkpt lat="45.35648" lon="6.60058">
        <ele>1826.64</ele>
        <time>2021-02-22T08:32:36Z</time>
      </trkpt>
      <trkpt lat="45.35652" lon="6.60064">
        <ele>1827.6</ele>
        <time>2021-02-22T08:32:50Z</time>
      </trkpt>
      <trkpt lat="45.35656" lon="6.60073">
        <ele>1828.56</ele>
        <time>2021-02-22T08:33:02Z</time>
      </trkpt>
      <trkpt lat="45.3566" lon="6.60082">
        <ele>1830.97</ele>
        <time>2021-02-22T08:33:14Z</time>
      </trkpt>
      <trkpt lat="45.35659" lon="6.60093">
        <ele>1832.89</ele>
        <time>2021-02-22T08:33:29Z</time>
      </trkpt>
      <trkpt lat="45.35658" lon="6.60108">
        <ele>1835.77</ele>
        <time>2021-02-22T08:33:45Z</time>
      </trkpt>
      <trkpt lat="45.35656" lon="6.6012">
        <ele>1837.22</ele>
        <time>2021-02-22T08:34:00Z</time>
      </trkpt>
      <trkpt lat="45.35655" lon="6.60135">
        <ele>1839.14</ele>
        <time>2021-02-22T08:34:13Z</time>
      </trkpt>
      <trkpt lat="45.35654" lon="6.60148">
        <ele>1842.5</ele>
        <time>2021-02-22T08:34:28Z</time>
      </trkpt>
      <trkpt lat="45.35654" lon="6.60161">
        <ele>1844.43</ele>
        <time>2021-02-22T08:34:43Z</time>
      </trkpt>
      <trkpt lat="45.35649" lon="6.60175">
        <ele>1845.87</ele>
        <time>2021-02-22T08:34:57Z</time>
      </trkpt>
      <trkpt lat="45.35646" lon="6.60184">
        <ele>1847.31</ele>
        <time>2021-02-22T08:35:15Z</time>
      </trkpt>
      <trkpt lat="45.35643" lon="6.60191">
        <ele>1847.79</ele>
        <time>2021-02-22T08:37:40Z</time>
      </trkpt>
      <trkpt lat="45.35639" lon="6.60204">
        <ele>1850.68</ele>
        <time>2021-02-22T08:37:53Z</time>
      </trkpt>
      <trkpt lat="45.35636" lon="6.60215">
        <ele>1852.6</ele>
        <time>2021-02-22T08:38:06Z</time>
      </trkpt>
      <trkpt lat="45.35641" lon="6.60231">
        <ele>1854.52</ele>
        <time>2021-02-22T08:38:19Z</time>
      </trkpt>
      <trkpt lat="45.35645" lon="6.60245">
        <ele>1855.96</ele>
        <time>2021-02-22T08:38:32Z</time>
      </trkpt>
      <trkpt lat="45.35649" lon="6.60257">
        <ele>1856.92</ele>
        <time>2021-02-22T08:38:43Z</time>
      </trkpt>
      <trkpt lat="45.35654" lon="6.60268">
        <ele>1857.4</ele>
        <time>2021-02-22T08:38:53Z</time>
      </trkpt>
      <trkpt lat="45.35659" lon="6.60281">
        <ele>1857.89</ele>
        <time>2021-02-22T08:39:03Z</time>
      </trkpt>
      <trkpt lat="45.3566" lon="6.60293">
        <ele>1859.33</ele>
        <time>2021-02-22T08:39:14Z</time>
      </trkpt>
      <trkpt lat="45.35661" lon="6.60306">
        <ele>1861.25</ele>
        <time>2021-02-22T08:39:27Z</time>
      </trkpt>
      <trkpt lat="45.35661" lon="6.60318">
        <ele>1863.65</ele>
        <time>2021-02-22T08:39:40Z</time>
      </trkpt>
      <trkpt lat="45.35664" lon="6.60331">
        <ele>1866.06</ele>
        <time>2021-02-22T08:39:54Z</time>
      </trkpt>
      <trkpt lat="45.35664" lon="6.60344">
        <ele>1866.54</ele>
        <time>2021-02-22T08:40:06Z</time>
      </trkpt>
      <trkpt lat="45.35661" lon="6.60355">
        <ele>1868.46</ele>
        <time>2021-02-22T08:40:18Z</time>
      </trkpt>
      <trkpt lat="45.35656" lon="6.60366">
        <ele>1868.46</ele>
        <time>2021-02-22T08:40:29Z</time>
      </trkpt>
      <trkpt lat="45.35654" lon="6.60378">
        <ele>1868.94</ele>
        <time>2021-02-22T08:40:40Z</time>
      </trkpt>
      <trkpt lat="45.35651" lon="6.60393">
        <ele>1870.86</ele>
        <time>2021-02-22T08:40:53Z</time>
      </trkpt>
      <trkpt lat="45.35648" lon="6.60405">
        <ele>1872.3</ele>
        <time>2021-02-22T08:41:06Z</time>
      </trkpt>
      <trkpt lat="45.35646" lon="6.60417">
        <ele>1874.23</ele>
        <time>2021-02-22T08:41:26Z</time>
      </trkpt>
      <trkpt lat="45.35644" lon="6.60432">
        <ele>1877.11</ele>
        <time>2021-02-22T08:41:55Z</time>
      </trkpt>
      <trkpt lat="45.35642" lon="6.60446">
        <ele>1879.03</ele>
        <time>2021-02-22T08:42:10Z</time>
      </trkpt>
      <trkpt lat="45.35638" lon="6.60459">
        <ele>1881.92</ele>
        <time>2021-02-22T08:42:26Z</time>
      </trkpt>
      <trkpt lat="45.35634" lon="6.60471">
        <ele>1884.32</ele>
        <time>2021-02-22T08:42:42Z</time>
      </trkpt>
      <trkpt lat="45.35628" lon="6.60481">
        <ele>1887.21</ele>
        <time>2021-02-22T08:42:59Z</time>
      </trkpt>
      <trkpt lat="45.35624" lon="6.60491">
        <ele>1889.13</ele>
        <time>2021-02-22T08:43:13Z</time>
      </trkpt>
      <trkpt lat="45.3563" lon="6.60501">
        <ele>1891.53</ele>
        <time>2021-02-22T08:43:29Z</time>
      </trkpt>
      <trkpt lat="45.35638" lon="6.60508">
        <ele>1893.45</ele>
        <time>2021-02-22T08:43:43Z</time>
      </trkpt>
      <trkpt lat="45.35647" lon="6.60512">
        <ele>1895.86</ele>
        <time>2021-02-22T08:43:59Z</time>
      </trkpt>
      <trkpt lat="45.35656" lon="6.6052">
        <ele>1898.74</ele>
        <time>2021-02-22T08:44:15Z</time>
      </trkpt>
      <trkpt lat="45.35663" lon="6.60527">
        <ele>1901.63</ele>
        <time>2021-02-22T08:44:31Z</time>
      </trkpt>
      <trkpt lat="45.3567" lon="6.60537">
        <ele>1903.55</ele>
        <time>2021-02-22T08:44:47Z</time>
      </trkpt>
      <trkpt lat="45.35677" lon="6.60548">
        <ele>1905.95</ele>
        <time>2021-02-22T08:45:03Z</time>
      </trkpt>
      <trkpt lat="45.35683" lon="6.60557">
        <ele>1908.83</ele>
        <time>2021-02-22T08:45:20Z</time>
      </trkpt>
      <trkpt lat="45.3569" lon="6.60564">
        <ele>1911.72</ele>
        <time>2021-02-22T08:45:39Z</time>
      </trkpt>
      <trkpt lat="45.35698" lon="6.60572">
        <ele>1914.12</ele>
        <time>2021-02-22T08:45:55Z</time>
      </trkpt>
      <trkpt lat="45.35706" lon="6.60581">
        <ele>1917.01</ele>
        <time>2021-02-22T08:46:12Z</time>
      </trkpt>
      <trkpt lat="45.35713" lon="6.60585">
        <ele>1919.41</ele>
        <time>2021-02-22T08:46:27Z</time>
      </trkpt>
      <trkpt lat="45.35722" lon="6.60596">
        <ele>1923.74</ele>
        <time>2021-02-22T08:46:50Z</time>
      </trkpt>
      <trkpt lat="45.35726" lon="6.60604">
        <ele>1926.14</ele>
        <time>2021-02-22T08:47:06Z</time>
      </trkpt>
      <trkpt lat="45.35718" lon="6.60605">
        <ele>1928.06</ele>
        <time>2021-02-22T08:47:22Z</time>
      </trkpt>
      <trkpt lat="45.35709" lon="6.60607">
        <ele>1929.98</ele>
        <time>2021-02-22T08:47:36Z</time>
      </trkpt>
      <trkpt lat="45.35699" lon="6.60609">
        <ele>1932.39</ele>
        <time>2021-02-22T08:47:54Z</time>
      </trkpt>
      <trkpt lat="45.35688" lon="6.60614">
        <ele>1935.27</ele>
        <time>2021-02-22T08:48:12Z</time>
      </trkpt>
      <trkpt lat="45.35681" lon="6.60619">
        <ele>1937.67</ele>
        <time>2021-02-22T08:48:28Z</time>
      </trkpt>
      <trkpt lat="45.35673" lon="6.60629">
        <ele>1941.52</ele>
        <time>2021-02-22T08:48:50Z</time>
      </trkpt>
      <trkpt lat="45.35663" lon="6.60639">
        <ele>1944.4</ele>
        <time>2021-02-22T08:49:09Z</time>
      </trkpt>
      <trkpt lat="45.35657" lon="6.60646">
        <ele>1946.81</ele>
        <time>2021-02-22T08:49:25Z</time>
      </trkpt>
      <trkpt lat="45.3565" lon="6.60653">
        <ele>1949.69</ele>
        <time>2021-02-22T08:49:41Z</time>
      </trkpt>
      <trkpt lat="45.35652" lon="6.60663">
        <ele>1951.61</ele>
        <time>2021-02-22T08:49:56Z</time>
      </trkpt>
      <trkpt lat="45.35662" lon="6.60665">
        <ele>1953.54</ele>
        <time>2021-02-22T08:50:12Z</time>
      </trkpt>
      <trkpt lat="45.35674" lon="6.60663">
        <ele>1956.42</ele>
        <time>2021-02-22T08:50:30Z</time>
      </trkpt>
      <trkpt lat="45.35683" lon="6.60665">
        <ele>1959.3</ele>
        <time>2021-02-22T08:50:49Z</time>
      </trkpt>
      <trkpt lat="45.35692" lon="6.6067">
        <ele>1962.67</ele>
        <time>2021-02-22T08:51:04Z</time>
      </trkpt>
      <trkpt lat="45.35697" lon="6.60677">
        <ele>1964.59</ele>
        <time>2021-02-22T08:51:17Z</time>
      </trkpt>
      <trkpt lat="45.35704" lon="6.60686">
        <ele>1967.96</ele>
        <time>2021-02-22T08:51:37Z</time>
      </trkpt>
      <trkpt lat="45.35712" lon="6.60694">
        <ele>1970.36</ele>
        <time>2021-02-22T08:51:55Z</time>
      </trkpt>
      <trkpt lat="45.35718" lon="6.60701">
        <ele>1972.76</ele>
        <time>2021-02-22T08:52:10Z</time>
      </trkpt>
      <trkpt lat="45.35722" lon="6.6071">
        <ele>1975.17</ele>
        <time>2021-02-22T08:52:25Z</time>
      </trkpt>
      <trkpt lat="45.3573" lon="6.6072">
        <ele>1976.61</ele>
        <time>2021-02-22T08:52:39Z</time>
      </trkpt>
      <trkpt lat="45.35737" lon="6.60733">
        <ele>1976.13</ele>
        <time>2021-02-22T08:52:48Z</time>
      </trkpt>
      <trkpt lat="45.35743" lon="6.60742">
        <ele>1975.65</ele>
        <time>2021-02-22T08:52:55Z</time>
      </trkpt>
      <trkpt lat="45.35749" lon="6.6075">
        <ele>1975.65</ele>
        <time>2021-02-22T08:53:08Z</time>
      </trkpt>
      <trkpt lat="45.35758" lon="6.60757">
        <ele>1978.05</ele>
        <time>2021-02-22T08:53:22Z</time>
      </trkpt>
      <trkpt lat="45.35767" lon="6.60763">
        <ele>1979.49</ele>
        <time>2021-02-22T08:53:36Z</time>
      </trkpt>
      <trkpt lat="45.35775" lon="6.6077">
        <ele>1981.41</ele>
        <time>2021-02-22T08:53:51Z</time>
      </trkpt>
      <trkpt lat="45.35782" lon="6.60777">
        <ele>1984.3</ele>
        <time>2021-02-22T08:54:08Z</time>
      </trkpt>
      <trkpt lat="45.35785" lon="6.60788">
        <ele>1987.18</ele>
        <time>2021-02-22T08:54:22Z</time>
      </trkpt>
      <trkpt lat="45.35792" lon="6.60799">
        <ele>1989.59</ele>
        <time>2021-02-22T08:54:38Z</time>
      </trkpt>
      <trkpt lat="45.35797" lon="6.60809">
        <ele>1992.47</ele>
        <time>2021-02-22T08:54:53Z</time>
      </trkpt>
      <trkpt lat="45.35802" lon="6.6082">
        <ele>1994.87</ele>
        <time>2021-02-22T08:55:08Z</time>
      </trkpt>
      <trkpt lat="45.35805" lon="6.60831">
        <ele>1997.76</ele>
        <time>2021-02-22T08:55:24Z</time>
      </trkpt>
      <trkpt lat="45.35803" lon="6.60843">
        <ele>1998.72</ele>
        <time>2021-02-22T08:55:39Z</time>
      </trkpt>
      <trkpt lat="45.35796" lon="6.60854">
        <ele>2000.16</ele>
        <time>2021-02-22T08:55:52Z</time>
      </trkpt>
      <trkpt lat="45.3579" lon="6.60864">
        <ele>2002.08</ele>
        <time>2021-02-22T08:56:05Z</time>
      </trkpt>
      <trkpt lat="45.35788" lon="6.60869">
        <ele>2001.12</ele>
        <time>2021-02-22T08:58:10Z</time>
      </trkpt>
      <trkpt lat="45.35782" lon="6.60881">
        <ele>2002.56</ele>
        <time>2021-02-22T08:58:45Z</time>
      </trkpt>
      <trkpt lat="45.35775" lon="6.6089">
        <ele>2002.08</ele>
        <time>2021-02-22T08:58:52Z</time>
      </trkpt>
      <trkpt lat="45.35771" lon="6.60898">
        <ele>2001.12</ele>
        <time>2021-02-22T08:59:06Z</time>
      </trkpt>
      <trkpt lat="45.35769" lon="6.60907">
        <ele>1999.2</ele>
        <time>2021-02-22T09:00:19Z</time>
      </trkpt>
      <trkpt lat="45.35764" lon="6.60919">
        <ele>2000.64</ele>
        <time>2021-02-22T09:00:39Z</time>
      </trkpt>
      <trkpt lat="45.35759" lon="6.60932">
        <ele>1999.68</ele>
        <time>2021-02-22T09:00:47Z</time>
      </trkpt>
      <trkpt lat="45.35756" lon="6.60944">
        <ele>1997.28</ele>
        <time>2021-02-22T09:00:53Z</time>
      </trkpt>
      <trkpt lat="45.35751" lon="6.60957">
        <ele>1998.24</ele>
        <time>2021-02-22T09:01:02Z</time>
      </trkpt>
      <trkpt lat="45.35745" lon="6.60969">
        <ele>1999.2</ele>
        <time>2021-02-22T09:01:12Z</time>
      </trkpt>
      <trkpt lat="45.35737" lon="6.60978">
        <ele>1995.83</ele>
        <time>2021-02-22T09:01:19Z</time>
      </trkpt>
      <trkpt lat="45.35729" lon="6.60987">
        <ele>1995.35</ele>
        <time>2021-02-22T09:01:25Z</time>
      </trkpt>
      <trkpt lat="45.3572" lon="6.60995">
        <ele>1995.35</ele>
        <time>2021-02-22T09:01:33Z</time>
      </trkpt>
      <trkpt lat="45.35713" lon="6.61002">
        <ele>1994.87</ele>
        <time>2021-02-22T09:01:43Z</time>
      </trkpt>
      <trkpt lat="45.35705" lon="6.61008">
        <ele>1994.87</ele>
        <time>2021-02-22T09:01:53Z</time>
      </trkpt>
      <trkpt lat="45.35697" lon="6.61013">
        <ele>1994.39</ele>
        <time>2021-02-22T09:02:02Z</time>
      </trkpt>
      <trkpt lat="45.35689" lon="6.61018">
        <ele>1993.91</ele>
        <time>2021-02-22T09:02:11Z</time>
      </trkpt>
      <trkpt lat="45.35682" lon="6.61026">
        <ele>1995.35</ele>
        <time>2021-02-22T09:02:22Z</time>
      </trkpt>
      <trkpt lat="45.35675" lon="6.61034">
        <ele>1996.32</ele>
        <time>2021-02-22T09:02:31Z</time>
      </trkpt>
      <trkpt lat="45.35666" lon="6.61039">
        <ele>1996.32</ele>
        <time>2021-02-22T09:02:39Z</time>
      </trkpt>
      <trkpt lat="45.35657" lon="6.61045">
        <ele>1996.32</ele>
        <time>2021-02-22T09:02:48Z</time>
      </trkpt>
      <trkpt lat="45.35648" lon="6.61048">
        <ele>1996.32</ele>
        <time>2021-02-22T09:02:56Z</time>
      </trkpt>
      <trkpt lat="45.35639" lon="6.61055">
        <ele>1995.35</ele>
        <time>2021-02-22T09:03:03Z</time>
      </trkpt>
      <trkpt lat="45.35632" lon="6.61063">
        <ele>1994.87</ele>
        <time>2021-02-22T09:03:10Z</time>
      </trkpt>
      <trkpt lat="45.35624" lon="6.61072">
        <ele>1993.91</ele>
        <time>2021-02-22T09:03:20Z</time>
      </trkpt>
      <trkpt lat="45.35616" lon="6.61079">
        <ele>1993.91</ele>
        <time>2021-02-22T09:03:31Z</time>
      </trkpt>
      <trkpt lat="45.35609" lon="6.61087">
        <ele>1995.83</ele>
        <time>2021-02-22T09:03:43Z</time>
      </trkpt>
      <trkpt lat="45.35603" lon="6.61097">
        <ele>1998.24</ele>
        <time>2021-02-22T09:03:56Z</time>
      </trkpt>
      <trkpt lat="45.35596" lon="6.61105">
        <ele>2001.12</ele>
        <time>2021-02-22T09:04:08Z</time>
      </trkpt>
      <trkpt lat="45.35587" lon="6.6111">
        <ele>2002.56</ele>
        <time>2021-02-22T09:04:20Z</time>
      </trkpt>
      <trkpt lat="45.35576" lon="6.61113">
        <ele>2002.56</ele>
        <time>2021-02-22T09:04:29Z</time>
      </trkpt>
      <trkpt lat="45.35568" lon="6.61117">
        <ele>2000.64</ele>
        <time>2021-02-22T09:04:34Z</time>
      </trkpt>
      <trkpt lat="45.35561" lon="6.61126">
        <ele>2000.16</ele>
        <time>2021-02-22T09:04:41Z</time>
      </trkpt>
      <trkpt lat="45.35551" lon="6.61126">
        <ele>1998.72</ele>
        <time>2021-02-22T09:04:47Z</time>
      </trkpt>
      <trkpt lat="45.35539" lon="6.61123">
        <ele>1997.28</ele>
        <time>2021-02-22T09:04:53Z</time>
      </trkpt>
      <trkpt lat="45.35529" lon="6.61123">
        <ele>1996.8</ele>
        <time>2021-02-22T09:04:59Z</time>
      </trkpt>
      <trkpt lat="45.35521" lon="6.61127">
        <ele>1995.83</ele>
        <time>2021-02-22T09:05:06Z</time>
      </trkpt>
      <trkpt lat="45.35514" lon="6.61134">
        <ele>1995.83</ele>
        <time>2021-02-22T09:05:15Z</time>
      </trkpt>
      <trkpt lat="45.35508" lon="6.6114">
        <ele>1995.83</ele>
        <time>2021-02-22T09:05:26Z</time>
      </trkpt>
      <trkpt lat="45.355" lon="6.61147">
        <ele>1997.28</ele>
        <time>2021-02-22T09:05:54Z</time>
      </trkpt>
      <trkpt lat="45.35494" lon="6.61155">
        <ele>1997.76</ele>
        <time>2021-02-22T09:06:03Z</time>
      </trkpt>
      <trkpt lat="45.35487" lon="6.61163">
        <ele>1997.76</ele>
        <time>2021-02-22T09:06:13Z</time>
      </trkpt>
      <trkpt lat="45.35481" lon="6.61175">
        <ele>1998.24</ele>
        <time>2021-02-22T09:06:23Z</time>
      </trkpt>
      <trkpt lat="45.35476" lon="6.61186">
        <ele>1998.24</ele>
        <time>2021-02-22T09:06:31Z</time>
      </trkpt>
      <trkpt lat="45.35468" lon="6.61194">
        <ele>1998.24</ele>
        <time>2021-02-22T09:06:41Z</time>
      </trkpt>
      <trkpt lat="45.35461" lon="6.61203">
        <ele>1998.72</ele>
        <time>2021-02-22T09:06:53Z</time>
      </trkpt>
      <trkpt lat="45.35452" lon="6.61209">
        <ele>2000.16</ele>
        <time>2021-02-22T09:07:10Z</time>
      </trkpt>
      <trkpt lat="45.35446" lon="6.61217">
        <ele>2000.64</ele>
        <time>2021-02-22T09:07:21Z</time>
      </trkpt>
      <trkpt lat="45.35439" lon="6.61226">
        <ele>2001.12</ele>
        <time>2021-02-22T09:07:29Z</time>
      </trkpt>
      <trkpt lat="45.3543" lon="6.61229">
        <ele>2001.12</ele>
        <time>2021-02-22T09:07:38Z</time>
      </trkpt>
      <trkpt lat="45.35422" lon="6.61235">
        <ele>2001.12</ele>
        <time>2021-02-22T09:07:48Z</time>
      </trkpt>
      <trkpt lat="45.35415" lon="6.61243">
        <ele>2001.12</ele>
        <time>2021-02-22T09:07:57Z</time>
      </trkpt>
      <trkpt lat="45.35407" lon="6.61251">
        <ele>2001.6</ele>
        <time>2021-02-22T09:08:08Z</time>
      </trkpt>
      <trkpt lat="45.35398" lon="6.61257">
        <ele>2002.08</ele>
        <time>2021-02-22T09:08:16Z</time>
      </trkpt>
      <trkpt lat="45.3539" lon="6.61262">
        <ele>2002.08</ele>
        <time>2021-02-22T09:08:25Z</time>
      </trkpt>
      <trkpt lat="45.35382" lon="6.61267">
        <ele>2002.08</ele>
        <time>2021-02-22T09:08:34Z</time>
      </trkpt>
      <trkpt lat="45.35374" lon="6.61274">
        <ele>2002.56</ele>
        <time>2021-02-22T09:08:42Z</time>
      </trkpt>
      <trkpt lat="45.35365" lon="6.61282">
        <ele>2002.56</ele>
        <time>2021-02-22T09:08:52Z</time>
      </trkpt>
      <trkpt lat="45.35356" lon="6.61287">
        <ele>2002.56</ele>
        <time>2021-02-22T09:09:01Z</time>
      </trkpt>
      <trkpt lat="45.35348" lon="6.6129">
        <ele>2003.52</ele>
        <time>2021-02-22T09:09:12Z</time>
      </trkpt>
      <trkpt lat="45.35336" lon="6.61293">
        <ele>2004.01</ele>
        <time>2021-02-22T09:09:21Z</time>
      </trkpt>
      <trkpt lat="45.35326" lon="6.61296">
        <ele>2004.01</ele>
        <time>2021-02-22T09:09:29Z</time>
      </trkpt>
      <trkpt lat="45.35317" lon="6.61301">
        <ele>2003.04</ele>
        <time>2021-02-22T09:09:37Z</time>
      </trkpt>
      <trkpt lat="45.35308" lon="6.61305">
        <ele>2003.04</ele>
        <time>2021-02-22T09:09:47Z</time>
      </trkpt>
      <trkpt lat="45.353" lon="6.61306">
        <ele>2003.04</ele>
        <time>2021-02-22T09:09:56Z</time>
      </trkpt>
      <trkpt lat="45.35291" lon="6.61305">
        <ele>2004.49</ele>
        <time>2021-02-22T09:10:06Z</time>
      </trkpt>
      <trkpt lat="45.3528" lon="6.61303">
        <ele>2004.97</ele>
        <time>2021-02-22T09:10:15Z</time>
      </trkpt>
      <trkpt lat="45.3527" lon="6.61301">
        <ele>2004.97</ele>
        <time>2021-02-22T09:10:23Z</time>
      </trkpt>
      <trkpt lat="45.35261" lon="6.61301">
        <ele>2004.97</ele>
        <time>2021-02-22T09:10:32Z</time>
      </trkpt>
      <trkpt lat="45.35254" lon="6.61307">
        <ele>2005.93</ele>
        <time>2021-02-22T09:10:42Z</time>
      </trkpt>
      <trkpt lat="45.35247" lon="6.61313">
        <ele>2006.41</ele>
        <time>2021-02-22T09:10:50Z</time>
      </trkpt>
      <trkpt lat="45.35239" lon="6.61318">
        <ele>2006.41</ele>
        <time>2021-02-22T09:10:57Z</time>
      </trkpt>
      <trkpt lat="45.35231" lon="6.61322">
        <ele>2007.85</ele>
        <time>2021-02-22T09:11:06Z</time>
      </trkpt>
      <trkpt lat="45.35223" lon="6.6133">
        <ele>2006.41</ele>
        <time>2021-02-22T09:11:15Z</time>
      </trkpt>
      <trkpt lat="45.35219" lon="6.61341">
        <ele>2004.97</ele>
        <time>2021-02-22T09:11:26Z</time>
      </trkpt>
      <trkpt lat="45.35213" lon="6.61352">
        <ele>2006.41</ele>
        <time>2021-02-22T09:11:37Z</time>
      </trkpt>
      <trkpt lat="45.35206" lon="6.61358">
        <ele>2006.41</ele>
        <time>2021-02-22T09:11:45Z</time>
      </trkpt>
      <trkpt lat="45.35197" lon="6.61363">
        <ele>2006.41</ele>
        <time>2021-02-22T09:11:53Z</time>
      </trkpt>
      <trkpt lat="45.35189" lon="6.61368">
        <ele>2006.41</ele>
        <time>2021-02-22T09:12:04Z</time>
      </trkpt>
      <trkpt lat="45.35181" lon="6.61373">
        <ele>2006.41</ele>
        <time>2021-02-22T09:12:13Z</time>
      </trkpt>
      <trkpt lat="45.35171" lon="6.61375">
        <ele>2007.85</ele>
        <time>2021-02-22T09:12:23Z</time>
      </trkpt>
      <trkpt lat="45.3516" lon="6.61379">
        <ele>2007.85</ele>
        <time>2021-02-22T09:12:33Z</time>
      </trkpt>
      <trkpt lat="45.35151" lon="6.61382">
        <ele>2008.33</ele>
        <time>2021-02-22T09:12:41Z</time>
      </trkpt>
      <trkpt lat="45.35141" lon="6.61386">
        <ele>2008.33</ele>
        <time>2021-02-22T09:12:50Z</time>
      </trkpt>
      <trkpt lat="45.35132" lon="6.6139">
        <ele>2008.33</ele>
        <time>2021-02-22T09:12:58Z</time>
      </trkpt>
      <trkpt lat="45.35124" lon="6.61395">
        <ele>2008.81</ele>
        <time>2021-02-22T09:13:08Z</time>
      </trkpt>
      <trkpt lat="45.35114" lon="6.614">
        <ele>2011.7</ele>
        <time>2021-02-22T09:13:18Z</time>
      </trkpt>
      <trkpt lat="45.35105" lon="6.61402">
        <ele>2009.29</ele>
        <time>2021-02-22T09:13:27Z</time>
      </trkpt>
      <trkpt lat="45.35096" lon="6.61406">
        <ele>2010.73</ele>
        <time>2021-02-22T09:13:39Z</time>
      </trkpt>
      <trkpt lat="45.35085" lon="6.61409">
        <ele>2010.73</ele>
        <time>2021-02-22T09:13:49Z</time>
      </trkpt>
      <trkpt lat="45.35076" lon="6.61414">
        <ele>2011.22</ele>
        <time>2021-02-22T09:13:59Z</time>
      </trkpt>
      <trkpt lat="45.35068" lon="6.61419">
        <ele>2011.7</ele>
        <time>2021-02-22T09:14:07Z</time>
      </trkpt>
      <trkpt lat="45.35059" lon="6.61424">
        <ele>2011.7</ele>
        <time>2021-02-22T09:14:17Z</time>
      </trkpt>
      <trkpt lat="45.3505" lon="6.61429">
        <ele>2011.7</ele>
        <time>2021-02-22T09:14:27Z</time>
      </trkpt>
      <trkpt lat="45.35042" lon="6.61437">
        <ele>2011.7</ele>
        <time>2021-02-22T09:14:37Z</time>
      </trkpt>
      <trkpt lat="45.35034" lon="6.61446">
        <ele>2011.7</ele>
        <time>2021-02-22T09:14:46Z</time>
      </trkpt>
      <trkpt lat="45.35026" lon="6.61455">
        <ele>2011.7</ele>
        <time>2021-02-22T09:14:55Z</time>
      </trkpt>
      <trkpt lat="45.35019" lon="6.61462">
        <ele>2012.18</ele>
        <time>2021-02-22T09:15:04Z</time>
      </trkpt>
      <trkpt lat="45.35012" lon="6.61469">
        <ele>2012.66</ele>
        <time>2021-02-22T09:15:12Z</time>
      </trkpt>
      <trkpt lat="45.35001" lon="6.61471">
        <ele>2012.66</ele>
        <time>2021-02-22T09:15:22Z</time>
      </trkpt>
      <trkpt lat="45.34994" lon="6.61478">
        <ele>2013.14</ele>
        <time>2021-02-22T09:15:31Z</time>
      </trkpt>
      <trkpt lat="45.34986" lon="6.61484">
        <ele>2013.62</ele>
        <time>2021-02-22T09:15:41Z</time>
      </trkpt>
      <trkpt lat="45.34979" lon="6.61486">
        <ele>2013.62</ele>
        <time>2021-02-22T09:16:19Z</time>
      </trkpt>
      <trkpt lat="45.34969" lon="6.61489">
        <ele>2013.62</ele>
        <time>2021-02-22T09:16:29Z</time>
      </trkpt>
      <trkpt lat="45.3496" lon="6.61492">
        <ele>2013.62</ele>
        <time>2021-02-22T09:16:38Z</time>
      </trkpt>
      <trkpt lat="45.34952" lon="6.61497">
        <ele>2014.1</ele>
        <time>2021-02-22T09:16:50Z</time>
      </trkpt>
      <trkpt lat="45.34944" lon="6.61503">
        <ele>2014.58</ele>
        <time>2021-02-22T09:17:00Z</time>
      </trkpt>
      <trkpt lat="45.34935" lon="6.61508">
        <ele>2014.58</ele>
        <time>2021-02-22T09:17:09Z</time>
      </trkpt>
      <trkpt lat="45.34925" lon="6.61513">
        <ele>2014.58</ele>
        <time>2021-02-22T09:17:19Z</time>
      </trkpt>
      <trkpt lat="45.34917" lon="6.6152">
        <ele>2016.02</ele>
        <time>2021-02-22T09:17:31Z</time>
      </trkpt>
      <trkpt lat="45.34907" lon="6.61519">
        <ele>2016.02</ele>
        <time>2021-02-22T09:17:43Z</time>
      </trkpt>
      <trkpt lat="45.34899" lon="6.61527">
        <ele>2016.02</ele>
        <time>2021-02-22T09:17:53Z</time>
      </trkpt>
      <trkpt lat="45.34894" lon="6.61539">
        <ele>2017.94</ele>
        <time>2021-02-22T09:18:06Z</time>
      </trkpt>
      <trkpt lat="45.34887" lon="6.6155">
        <ele>2018.91</ele>
        <time>2021-02-22T09:18:18Z</time>
      </trkpt>
      <trkpt lat="45.34879" lon="6.61553">
        <ele>2018.91</ele>
        <time>2021-02-22T09:18:30Z</time>
      </trkpt>
      <trkpt lat="45.34867" lon="6.61551">
        <ele>2018.91</ele>
        <time>2021-02-22T09:18:39Z</time>
      </trkpt>
      <trkpt lat="45.34859" lon="6.61552">
        <ele>2019.39</ele>
        <time>2021-02-22T09:18:50Z</time>
      </trkpt>
      <trkpt lat="45.34851" lon="6.61552">
        <ele>2020.83</ele>
        <time>2021-02-22T09:19:01Z</time>
      </trkpt>
      <trkpt lat="45.34841" lon="6.61557">
        <ele>2022.27</ele>
        <time>2021-02-22T09:19:13Z</time>
      </trkpt>
      <trkpt lat="45.34833" lon="6.61566">
        <ele>2024.19</ele>
        <time>2021-02-22T09:19:24Z</time>
      </trkpt>
      <trkpt lat="45.34829" lon="6.61577">
        <ele>2024.19</ele>
        <time>2021-02-22T09:19:32Z</time>
      </trkpt>
      <trkpt lat="45.34821" lon="6.61586">
        <ele>2024.19</ele>
        <time>2021-02-22T09:19:41Z</time>
      </trkpt>
      <trkpt lat="45.34814" lon="6.61591">
        <ele>2024.19</ele>
        <time>2021-02-22T09:19:50Z</time>
      </trkpt>
      <trkpt lat="45.34806" lon="6.61596">
        <ele>2024.19</ele>
        <time>2021-02-22T09:19:59Z</time>
      </trkpt>
      <trkpt lat="45.34797" lon="6.61604">
        <ele>2022.75</ele>
        <time>2021-02-22T09:20:08Z</time>
      </trkpt>
      <trkpt lat="45.34789" lon="6.61613">
        <ele>2022.27</ele>
        <time>2021-02-22T09:20:16Z</time>
      </trkpt>
      <trkpt lat="45.34782" lon="6.6162">
        <ele>2021.31</ele>
        <time>2021-02-22T09:20:24Z</time>
      </trkpt>
      <trkpt lat="45.34776" lon="6.6163">
        <ele>2020.83</ele>
        <time>2021-02-22T09:20:30Z</time>
      </trkpt>
      <trkpt lat="45.3477" lon="6.61641">
        <ele>2018.91</ele>
        <time>2021-02-22T09:20:33Z</time>
      </trkpt>
      <trkpt lat="45.34763" lon="6.6165">
        <ele>2018.91</ele>
        <time>2021-02-22T09:20:44Z</time>
      </trkpt>
      <trkpt lat="45.34756" lon="6.61654">
        <ele>2019.87</ele>
        <time>2021-02-22T09:21:18Z</time>
      </trkpt>
      <trkpt lat="45.34752" lon="6.61665">
        <ele>2020.83</ele>
        <time>2021-02-22T09:21:54Z</time>
      </trkpt>
      <trkpt lat="45.34748" lon="6.61678">
        <ele>2020.83</ele>
        <time>2021-02-22T09:22:04Z</time>
      </trkpt>
      <trkpt lat="45.34741" lon="6.61687">
        <ele>2020.83</ele>
        <time>2021-02-22T09:22:12Z</time>
      </trkpt>
      <trkpt lat="45.34736" lon="6.61695">
        <ele>2021.31</ele>
        <time>2021-02-22T09:22:20Z</time>
      </trkpt>
      <trkpt lat="45.34728" lon="6.61703">
        <ele>2021.79</ele>
        <time>2021-02-22T09:22:28Z</time>
      </trkpt>
      <trkpt lat="45.34721" lon="6.61708">
        <ele>2021.79</ele>
        <time>2021-02-22T09:22:36Z</time>
      </trkpt>
      <trkpt lat="45.34714" lon="6.61717">
        <ele>2022.27</ele>
        <time>2021-02-22T09:22:44Z</time>
      </trkpt>
      <trkpt lat="45.34707" lon="6.61726">
        <ele>2022.27</ele>
        <time>2021-02-22T09:22:53Z</time>
      </trkpt>
      <trkpt lat="45.34699" lon="6.61734">
        <ele>2022.27</ele>
        <time>2021-02-22T09:23:02Z</time>
      </trkpt>
      <trkpt lat="45.3469" lon="6.61741">
        <ele>2022.27</ele>
        <time>2021-02-22T09:23:11Z</time>
      </trkpt>
      <trkpt lat="45.34682" lon="6.61748">
        <ele>2022.27</ele>
        <time>2021-02-22T09:23:19Z</time>
      </trkpt>
      <trkpt lat="45.34675" lon="6.61757">
        <ele>2023.71</ele>
        <time>2021-02-22T09:23:29Z</time>
      </trkpt>
      <trkpt lat="45.34667" lon="6.61763">
        <ele>2023.71</ele>
        <time>2021-02-22T09:23:40Z</time>
      </trkpt>
      <trkpt lat="45.3466" lon="6.61771">
        <ele>2024.19</ele>
        <time>2021-02-22T09:23:50Z</time>
      </trkpt>
      <trkpt lat="45.34654" lon="6.61779">
        <ele>2024.67</ele>
        <time>2021-02-22T09:23:59Z</time>
      </trkpt>
      <trkpt lat="45.34646" lon="6.61789">
        <ele>2024.67</ele>
        <time>2021-02-22T09:24:10Z</time>
      </trkpt>
      <trkpt lat="45.3464" lon="6.61798">
        <ele>2024.67</ele>
        <time>2021-02-22T09:24:20Z</time>
      </trkpt>
      <trkpt lat="45.34633" lon="6.61805">
        <ele>2025.64</ele>
        <time>2021-02-22T09:24:28Z</time>
      </trkpt>
      <trkpt lat="45.34627" lon="6.61814">
        <ele>2026.12</ele>
        <time>2021-02-22T09:24:36Z</time>
      </trkpt>
      <trkpt lat="45.3462" lon="6.61824">
        <ele>2026.6</ele>
        <time>2021-02-22T09:24:44Z</time>
      </trkpt>
      <trkpt lat="45.34614" lon="6.61834">
        <ele>2027.08</ele>
        <time>2021-02-22T09:24:54Z</time>
      </trkpt>
      <trkpt lat="45.34609" lon="6.61845">
        <ele>2027.56</ele>
        <time>2021-02-22T09:25:04Z</time>
      </trkpt>
      <trkpt lat="45.34602" lon="6.61853">
        <ele>2028.04</ele>
        <time>2021-02-22T09:25:13Z</time>
      </trkpt>
      <trkpt lat="45.34597" lon="6.61861">
        <ele>2028.04</ele>
        <time>2021-02-22T09:25:23Z</time>
      </trkpt>
      <trkpt lat="45.3459" lon="6.61872">
        <ele>2028.52</ele>
        <time>2021-02-22T09:25:34Z</time>
      </trkpt>
      <trkpt lat="45.34583" lon="6.6188">
        <ele>2029.96</ele>
        <time>2021-02-22T09:25:44Z</time>
      </trkpt>
      <trkpt lat="45.34577" lon="6.61889">
        <ele>2030.44</ele>
        <time>2021-02-22T09:25:54Z</time>
      </trkpt>
      <trkpt lat="45.3457" lon="6.61897">
        <ele>2030.92</ele>
        <time>2021-02-22T09:26:14Z</time>
      </trkpt>
      <trkpt lat="45.34562" lon="6.61909">
        <ele>2032.84</ele>
        <time>2021-02-22T09:26:26Z</time>
      </trkpt>
      <trkpt lat="45.34557" lon="6.61919">
        <ele>2033.33</ele>
        <time>2021-02-22T09:26:38Z</time>
      </trkpt>
      <trkpt lat="45.34551" lon="6.61931">
        <ele>2034.77</ele>
        <time>2021-02-22T09:26:49Z</time>
      </trkpt>
      <trkpt lat="45.34545" lon="6.61941">
        <ele>2035.25</ele>
        <time>2021-02-22T09:26:59Z</time>
      </trkpt>
      <trkpt lat="45.3454" lon="6.61951">
        <ele>2036.21</ele>
        <time>2021-02-22T09:27:08Z</time>
      </trkpt>
      <trkpt lat="45.34534" lon="6.6196">
        <ele>2036.69</ele>
        <time>2021-02-22T09:27:19Z</time>
      </trkpt>
      <trkpt lat="45.34529" lon="6.6197">
        <ele>2036.69</ele>
        <time>2021-02-22T09:27:28Z</time>
      </trkpt>
      <trkpt lat="45.34524" lon="6.61981">
        <ele>2036.69</ele>
        <time>2021-02-22T09:27:38Z</time>
      </trkpt>
      <trkpt lat="45.34518" lon="6.61993">
        <ele>2036.69</ele>
        <time>2021-02-22T09:27:48Z</time>
      </trkpt>
      <trkpt lat="45.34512" lon="6.62005">
        <ele>2036.69</ele>
        <time>2021-02-22T09:27:56Z</time>
      </trkpt>
      <trkpt lat="45.34507" lon="6.62015">
        <ele>2036.69</ele>
        <time>2021-02-22T09:28:04Z</time>
      </trkpt>
      <trkpt lat="45.34501" lon="6.62027">
        <ele>2036.69</ele>
        <time>2021-02-22T09:28:15Z</time>
      </trkpt>
      <trkpt lat="45.34495" lon="6.62038">
        <ele>2037.17</ele>
        <time>2021-02-22T09:28:23Z</time>
      </trkpt>
      <trkpt lat="45.3449" lon="6.62049">
        <ele>2038.13</ele>
        <time>2021-02-22T09:28:36Z</time>
      </trkpt>
      <trkpt lat="45.34483" lon="6.62059">
        <ele>2039.57</ele>
        <time>2021-02-22T09:28:50Z</time>
      </trkpt>
      <trkpt lat="45.34478" lon="6.62066">
        <ele>2040.54</ele>
        <time>2021-02-22T09:30:14Z</time>
      </trkpt>
      <trkpt lat="45.34473" lon="6.62078">
        <ele>2040.54</ele>
        <time>2021-02-22T09:30:23Z</time>
      </trkpt>
      <trkpt lat="45.34467" lon="6.62089">
        <ele>2040.54</ele>
        <time>2021-02-22T09:30:31Z</time>
      </trkpt>
      <trkpt lat="45.34462" lon="6.621">
        <ele>2041.02</ele>
        <time>2021-02-22T09:30:40Z</time>
      </trkpt>
      <trkpt lat="45.34458" lon="6.62111">
        <ele>2041.5</ele>
        <time>2021-02-22T09:30:51Z</time>
      </trkpt>
      <trkpt lat="45.34451" lon="6.62122">
        <ele>2042.46</ele>
        <time>2021-02-22T09:31:02Z</time>
      </trkpt>
      <trkpt lat="45.34445" lon="6.62134">
        <ele>2042.94</ele>
        <time>2021-02-22T09:31:11Z</time>
      </trkpt>
      <trkpt lat="45.34441" lon="6.62143">
        <ele>2042.94</ele>
        <time>2021-02-22T09:31:20Z</time>
      </trkpt>
      <trkpt lat="45.34438" lon="6.62158">
        <ele>2043.9</ele>
        <time>2021-02-22T09:31:30Z</time>
      </trkpt>
      <trkpt lat="45.34435" lon="6.6217">
        <ele>2043.9</ele>
        <time>2021-02-22T09:31:40Z</time>
      </trkpt>
      <trkpt lat="45.34433" lon="6.62182">
        <ele>2043.9</ele>
        <time>2021-02-22T09:31:50Z</time>
      </trkpt>
      <trkpt lat="45.3443" lon="6.62194">
        <ele>2044.86</ele>
        <time>2021-02-22T09:32:00Z</time>
      </trkpt>
      <trkpt lat="45.34428" lon="6.62209">
        <ele>2045.34</ele>
        <time>2021-02-22T09:32:12Z</time>
      </trkpt>
      <trkpt lat="45.34425" lon="6.62222">
        <ele>2045.82</ele>
        <time>2021-02-22T09:32:24Z</time>
      </trkpt>
      <trkpt lat="45.34421" lon="6.62235">
        <ele>2045.82</ele>
        <time>2021-02-22T09:32:35Z</time>
      </trkpt>
      <trkpt lat="45.34416" lon="6.62246">
        <ele>2046.78</ele>
        <time>2021-02-22T09:32:47Z</time>
      </trkpt>
      <trkpt lat="45.34414" lon="6.6226">
        <ele>2048.23</ele>
        <time>2021-02-22T09:33:00Z</time>
      </trkpt>
      <trkpt lat="45.34411" lon="6.62271">
        <ele>2048.71</ele>
        <time>2021-02-22T09:33:11Z</time>
      </trkpt>
      <trkpt lat="45.34408" lon="6.62283">
        <ele>2048.71</ele>
        <time>2021-02-22T09:33:20Z</time>
      </trkpt>
      <trkpt lat="45.34405" lon="6.62295">
        <ele>2049.19</ele>
        <time>2021-02-22T09:33:31Z</time>
      </trkpt>
      <trkpt lat="45.34402" lon="6.62308">
        <ele>2050.63</ele>
        <time>2021-02-22T09:33:44Z</time>
      </trkpt>
      <trkpt lat="45.34397" lon="6.6232">
        <ele>2051.11</ele>
        <time>2021-02-22T09:33:54Z</time>
      </trkpt>
      <trkpt lat="45.34392" lon="6.62331">
        <ele>2052.07</ele>
        <time>2021-02-22T09:34:06Z</time>
      </trkpt>
      <trkpt lat="45.34386" lon="6.62341">
        <ele>2053.51</ele>
        <time>2021-02-22T09:34:19Z</time>
      </trkpt>
      <trkpt lat="45.34381" lon="6.62351">
        <ele>2054.47</ele>
        <time>2021-02-22T09:34:31Z</time>
      </trkpt>
      <trkpt lat="45.34377" lon="6.62365">
        <ele>2057.84</ele>
        <time>2021-02-22T09:34:48Z</time>
      </trkpt>
      <trkpt lat="45.34372" lon="6.62375">
        <ele>2058.8</ele>
        <time>2021-02-22T09:35:00Z</time>
      </trkpt>
      <trkpt lat="45.34369" lon="6.62387">
        <ele>2058.8</ele>
        <time>2021-02-22T09:35:12Z</time>
      </trkpt>
      <trkpt lat="45.34366" lon="6.624">
        <ele>2059.28</ele>
        <time>2021-02-22T09:35:25Z</time>
      </trkpt>
      <trkpt lat="45.34362" lon="6.62415">
        <ele>2060.72</ele>
        <time>2021-02-22T09:35:39Z</time>
      </trkpt>
      <trkpt lat="45.34361" lon="6.62428">
        <ele>2063.13</ele>
        <time>2021-02-22T09:35:54Z</time>
      </trkpt>
      <trkpt lat="45.34359" lon="6.62441">
        <ele>2064.57</ele>
        <time>2021-02-22T09:36:08Z</time>
      </trkpt>
      <trkpt lat="45.34359" lon="6.62455">
        <ele>2065.53</ele>
        <time>2021-02-22T09:36:21Z</time>
      </trkpt>
      <trkpt lat="45.34355" lon="6.62467">
        <ele>2066.49</ele>
        <time>2021-02-22T09:36:33Z</time>
      </trkpt>
      <trkpt lat="45.34352" lon="6.62479">
        <ele>2068.41</ele>
        <time>2021-02-22T09:37:07Z</time>
      </trkpt>
      <trkpt lat="45.3435" lon="6.62494">
        <ele>2070.34</ele>
        <time>2021-02-22T09:37:21Z</time>
      </trkpt>
      <trkpt lat="45.3435" lon="6.62507">
        <ele>2072.26</ele>
        <time>2021-02-22T09:37:37Z</time>
      </trkpt>
      <trkpt lat="45.34346" lon="6.62518">
        <ele>2073.22</ele>
        <time>2021-02-22T09:37:54Z</time>
      </trkpt>
      <trkpt lat="45.34346" lon="6.6253">
        <ele>2077.07</ele>
        <time>2021-02-22T09:38:18Z</time>
      </trkpt>
      <trkpt lat="45.34346" lon="6.62541">
        <ele>2079.95</ele>
        <time>2021-02-22T09:38:40Z</time>
      </trkpt>
      <trkpt lat="45.34344" lon="6.62555">
        <ele>2081.87</ele>
        <time>2021-02-22T09:39:00Z</time>
      </trkpt>
      <trkpt lat="45.3434" lon="6.6257">
        <ele>2086.68</ele>
        <time>2021-02-22T09:39:26Z</time>
      </trkpt>
      <trkpt lat="45.34336" lon="6.62584">
        <ele>2089.08</ele>
        <time>2021-02-22T09:39:46Z</time>
      </trkpt>
      <trkpt lat="45.34336" lon="6.62596">
        <ele>2091</ele>
        <time>2021-02-22T09:40:07Z</time>
      </trkpt>
      <trkpt lat="45.34333" lon="6.62609">
        <ele>2095.33</ele>
        <time>2021-02-22T09:40:30Z</time>
      </trkpt>
      <trkpt lat="45.34332" lon="6.6262">
        <ele>2098.21</ele>
        <time>2021-02-22T09:40:47Z</time>
      </trkpt>
      <trkpt lat="45.34324" lon="6.6263">
        <ele>2101.58</ele>
        <time>2021-02-22T09:41:08Z</time>
      </trkpt>
      <trkpt lat="45.34316" lon="6.62639">
        <ele>2103.5</ele>
        <time>2021-02-22T09:41:28Z</time>
      </trkpt>
      <trkpt lat="45.3431" lon="6.62644">
        <ele>2107.35</ele>
        <time>2021-02-22T09:41:47Z</time>
      </trkpt>
      <trkpt lat="45.34305" lon="6.62654">
        <ele>2108.79</ele>
        <time>2021-02-22T09:42:05Z</time>
      </trkpt>
      <trkpt lat="45.343" lon="6.62663">
        <ele>2112.15</ele>
        <time>2021-02-22T09:42:25Z</time>
      </trkpt>
      <trkpt lat="45.34292" lon="6.62673">
        <ele>2116.48</ele>
        <time>2021-02-22T09:42:46Z</time>
      </trkpt>
      <trkpt lat="45.34289" lon="6.62685">
        <ele>2117.44</ele>
        <time>2021-02-22T09:43:04Z</time>
      </trkpt>
      <trkpt lat="45.34285" lon="6.62696">
        <ele>2120.32</ele>
        <time>2021-02-22T09:43:24Z</time>
      </trkpt>
      <trkpt lat="45.34279" lon="6.62706">
        <ele>2118.4</ele>
        <time>2021-02-22T09:43:34Z</time>
      </trkpt>
      <trkpt lat="45.34278" lon="6.62719">
        <ele>2116</ele>
        <time>2021-02-22T09:43:45Z</time>
      </trkpt>
      <trkpt lat="45.34277" lon="6.62731">
        <ele>2114.08</ele>
        <time>2021-02-22T09:43:54Z</time>
      </trkpt>
      <trkpt lat="45.34276" lon="6.62745">
        <ele>2112.63</ele>
        <time>2021-02-22T09:44:04Z</time>
      </trkpt>
      <trkpt lat="45.3427" lon="6.62756">
        <ele>2115.04</ele>
        <time>2021-02-22T09:44:17Z</time>
      </trkpt>
      <trkpt lat="45.34265" lon="6.62764">
        <ele>2115.04</ele>
        <time>2021-02-22T09:44:29Z</time>
      </trkpt>
      <trkpt lat="45.34262" lon="6.62776">
        <ele>2117.44</ele>
        <time>2021-02-22T09:44:42Z</time>
      </trkpt>
      <trkpt lat="45.34258" lon="6.62788">
        <ele>2116.48</ele>
        <time>2021-02-22T09:44:53Z</time>
      </trkpt>
      <trkpt lat="45.34253" lon="6.62798">
        <ele>2116.96</ele>
        <time>2021-02-22T09:45:23Z</time>
      </trkpt>
      <trkpt lat="45.3425" lon="6.62811">
        <ele>2116.96</ele>
        <time>2021-02-22T09:45:34Z</time>
      </trkpt>
      <trkpt lat="45.34246" lon="6.62824">
        <ele>2116.48</ele>
        <time>2021-02-22T09:45:47Z</time>
      </trkpt>
      <trkpt lat="45.34243" lon="6.62837">
        <ele>2116</ele>
        <time>2021-02-22T09:45:59Z</time>
      </trkpt>
      <trkpt lat="45.3424" lon="6.62849">
        <ele>2118.4</ele>
        <time>2021-02-22T09:46:11Z</time>
      </trkpt>
      <trkpt lat="45.34236" lon="6.62864">
        <ele>2121.29</ele>
        <time>2021-02-22T09:46:25Z</time>
      </trkpt>
      <trkpt lat="45.34231" lon="6.62877">
        <ele>2119.84</ele>
        <time>2021-02-22T09:46:32Z</time>
      </trkpt>
      <trkpt lat="45.34227" lon="6.6289">
        <ele>2118.4</ele>
        <time>2021-02-22T09:46:37Z</time>
      </trkpt>
      <trkpt lat="45.34222" lon="6.62902">
        <ele>2116</ele>
        <time>2021-02-22T09:46:46Z</time>
      </trkpt>
      <trkpt lat="45.34217" lon="6.62914">
        <ele>2116.48</ele>
        <time>2021-02-22T09:46:56Z</time>
      </trkpt>
      <trkpt lat="45.34213" lon="6.62927">
        <ele>2116</ele>
        <time>2021-02-22T09:47:07Z</time>
      </trkpt>
      <trkpt lat="45.34208" lon="6.62939">
        <ele>2116</ele>
        <time>2021-02-22T09:47:17Z</time>
      </trkpt>
      <trkpt lat="45.34203" lon="6.62952">
        <ele>2116</ele>
        <time>2021-02-22T09:47:27Z</time>
      </trkpt>
      <trkpt lat="45.34201" lon="6.62965">
        <ele>2116</ele>
        <time>2021-02-22T09:47:37Z</time>
      </trkpt>
      <trkpt lat="45.34198" lon="6.62978">
        <ele>2115.52</ele>
        <time>2021-02-22T09:47:45Z</time>
      </trkpt>
      <trkpt lat="45.34197" lon="6.62989">
        <ele>2116.96</ele>
        <time>2021-02-22T09:47:54Z</time>
      </trkpt>
      <trkpt lat="45.34196" lon="6.63002">
        <ele>2116.96</ele>
        <time>2021-02-22T09:48:04Z</time>
      </trkpt>
      <trkpt lat="45.34195" lon="6.63016">
        <ele>2118.4</ele>
        <time>2021-02-22T09:48:15Z</time>
      </trkpt>
      <trkpt lat="45.34191" lon="6.63028">
        <ele>2118.4</ele>
        <time>2021-02-22T09:48:25Z</time>
      </trkpt>
      <trkpt lat="45.34184" lon="6.63038">
        <ele>2118.4</ele>
        <time>2021-02-22T09:48:33Z</time>
      </trkpt>
      <trkpt lat="45.34177" lon="6.63046">
        <ele>2118.88</ele>
        <time>2021-02-22T09:48:43Z</time>
      </trkpt>
      <trkpt lat="45.34171" lon="6.63056">
        <ele>2123.21</ele>
        <time>2021-02-22T09:48:57Z</time>
      </trkpt>
      <trkpt lat="45.34163" lon="6.63061">
        <ele>2125.13</ele>
        <time>2021-02-22T09:49:10Z</time>
      </trkpt>
      <trkpt lat="45.34154" lon="6.63066">
        <ele>2122.73</ele>
        <time>2021-02-22T09:49:21Z</time>
      </trkpt>
      <trkpt lat="45.34144" lon="6.63071">
        <ele>2122.25</ele>
        <time>2021-02-22T09:49:31Z</time>
      </trkpt>
      <trkpt lat="45.34134" lon="6.63075">
        <ele>2122.73</ele>
        <time>2021-02-22T09:49:41Z</time>
      </trkpt>
      <trkpt lat="45.34125" lon="6.63082">
        <ele>2123.69</ele>
        <time>2021-02-22T09:49:51Z</time>
      </trkpt>
      <trkpt lat="45.34115" lon="6.63087">
        <ele>2121.29</ele>
        <time>2021-02-22T09:49:59Z</time>
      </trkpt>
      <trkpt lat="45.34107" lon="6.63092">
        <ele>2120.81</ele>
        <time>2021-02-22T09:50:09Z</time>
      </trkpt>
      <trkpt lat="45.34099" lon="6.63098">
        <ele>2123.69</ele>
        <time>2021-02-22T09:50:20Z</time>
      </trkpt>
      <trkpt lat="45.34091" lon="6.63104">
        <ele>2125.13</ele>
        <time>2021-02-22T09:50:31Z</time>
      </trkpt>
      <trkpt lat="45.34083" lon="6.63111">
        <ele>2125.13</ele>
        <time>2021-02-22T09:50:42Z</time>
      </trkpt>
      <trkpt lat="45.34076" lon="6.63118">
        <ele>2127.05</ele>
        <time>2021-02-22T09:51:00Z</time>
      </trkpt>
      <trkpt lat="45.34067" lon="6.63126">
        <ele>2128.5</ele>
        <time>2021-02-22T09:51:10Z</time>
      </trkpt>
      <trkpt lat="45.34062" lon="6.63134">
        <ele>2126.09</ele>
        <time>2021-02-22T09:51:18Z</time>
      </trkpt>
      <trkpt lat="45.34054" lon="6.6314">
        <ele>2126.57</ele>
        <time>2021-02-22T09:51:27Z</time>
      </trkpt>
      <trkpt lat="45.34044" lon="6.63144">
        <ele>2126.09</ele>
        <time>2021-02-22T09:51:40Z</time>
      </trkpt>
      <trkpt lat="45.34036" lon="6.6315">
        <ele>2125.13</ele>
        <time>2021-02-22T09:51:49Z</time>
      </trkpt>
      <trkpt lat="45.34028" lon="6.63156">
        <ele>2124.17</ele>
        <time>2021-02-22T09:51:57Z</time>
      </trkpt>
      <trkpt lat="45.3402" lon="6.63164">
        <ele>2121.77</ele>
        <time>2021-02-22T09:52:07Z</time>
      </trkpt>
      <trkpt lat="45.34013" lon="6.63171">
        <ele>2124.65</ele>
        <time>2021-02-22T09:52:18Z</time>
      </trkpt>
      <trkpt lat="45.34004" lon="6.63176">
        <ele>2124.65</ele>
        <time>2021-02-22T09:52:30Z</time>
      </trkpt>
      <trkpt lat="45.33995" lon="6.63183">
        <ele>2124.65</ele>
        <time>2021-02-22T09:52:40Z</time>
      </trkpt>
      <trkpt lat="45.33986" lon="6.63186">
        <ele>2124.65</ele>
        <time>2021-02-22T09:52:48Z</time>
      </trkpt>
      <trkpt lat="45.33976" lon="6.6319">
        <ele>2125.13</ele>
        <time>2021-02-22T09:52:58Z</time>
      </trkpt>
      <trkpt lat="45.33967" lon="6.63194">
        <ele>2124.17</ele>
        <time>2021-02-22T09:53:08Z</time>
      </trkpt>
      <trkpt lat="45.3396" lon="6.632">
        <ele>2125.13</ele>
        <time>2021-02-22T09:53:18Z</time>
      </trkpt>
      <trkpt lat="45.33949" lon="6.63202">
        <ele>2125.61</ele>
        <time>2021-02-22T09:53:29Z</time>
      </trkpt>
      <trkpt lat="45.3394" lon="6.63204">
        <ele>2124.17</ele>
        <time>2021-02-22T09:53:38Z</time>
      </trkpt>
      <trkpt lat="45.33931" lon="6.63207">
        <ele>2124.17</ele>
        <time>2021-02-22T09:53:48Z</time>
      </trkpt>
      <trkpt lat="45.33923" lon="6.6321">
        <ele>2124.17</ele>
        <time>2021-02-22T09:53:56Z</time>
      </trkpt>
      <trkpt lat="45.33915" lon="6.63212">
        <ele>2124.17</ele>
        <time>2021-02-22T09:54:04Z</time>
      </trkpt>
      <trkpt lat="45.33907" lon="6.63217">
        <ele>2125.61</ele>
        <time>2021-02-22T09:54:12Z</time>
      </trkpt>
      <trkpt lat="45.33898" lon="6.63221">
        <ele>2125.61</ele>
        <time>2021-02-22T09:54:20Z</time>
      </trkpt>
      <trkpt lat="45.3389" lon="6.63226">
        <ele>2125.61</ele>
        <time>2021-02-22T09:54:31Z</time>
      </trkpt>
      <trkpt lat="45.3388" lon="6.63229">
        <ele>2125.61</ele>
        <time>2021-02-22T09:54:41Z</time>
      </trkpt>
      <trkpt lat="45.33871" lon="6.63233">
        <ele>2127.05</ele>
        <time>2021-02-22T09:54:52Z</time>
      </trkpt>
      <trkpt lat="45.33862" lon="6.63238">
        <ele>2127.05</ele>
        <time>2021-02-22T09:55:02Z</time>
      </trkpt>
      <trkpt lat="45.33855" lon="6.63244">
        <ele>2127.05</ele>
        <time>2021-02-22T09:55:11Z</time>
      </trkpt>
      <trkpt lat="45.33846" lon="6.63251">
        <ele>2128.02</ele>
        <time>2021-02-22T09:55:23Z</time>
      </trkpt>
      <trkpt lat="45.33837" lon="6.6326">
        <ele>2126.57</ele>
        <time>2021-02-22T09:55:35Z</time>
      </trkpt>
      <trkpt lat="45.33829" lon="6.63267">
        <ele>2126.57</ele>
        <time>2021-02-22T09:55:46Z</time>
      </trkpt>
      <trkpt lat="45.33821" lon="6.63273">
        <ele>2126.57</ele>
        <time>2021-02-22T09:55:58Z</time>
      </trkpt>
      <trkpt lat="45.33814" lon="6.63281">
        <ele>2126.57</ele>
        <time>2021-02-22T09:56:09Z</time>
      </trkpt>
      <trkpt lat="45.33807" lon="6.63288">
        <ele>2126.57</ele>
        <time>2021-02-22T09:56:19Z</time>
      </trkpt>
      <trkpt lat="45.33799" lon="6.63293">
        <ele>2128.02</ele>
        <time>2021-02-22T09:56:30Z</time>
      </trkpt>
      <trkpt lat="45.33793" lon="6.63299">
        <ele>2128.5</ele>
        <time>2021-02-22T09:56:41Z</time>
      </trkpt>
      <trkpt lat="45.33786" lon="6.63306">
        <ele>2128.5</ele>
        <time>2021-02-22T09:56:52Z</time>
      </trkpt>
      <trkpt lat="45.33779" lon="6.63312">
        <ele>2128.5</ele>
        <time>2021-02-22T09:57:05Z</time>
      </trkpt>
      <trkpt lat="45.33771" lon="6.63319">
        <ele>2128.5</ele>
        <time>2021-02-22T09:57:19Z</time>
      </trkpt>
      <trkpt lat="45.33763" lon="6.63329">
        <ele>2130.42</ele>
        <time>2021-02-22T09:57:32Z</time>
      </trkpt>
      <trkpt lat="45.33756" lon="6.63335">
        <ele>2129.94</ele>
        <time>2021-02-22T09:57:42Z</time>
      </trkpt>
      <trkpt lat="45.3375" lon="6.63341">
        <ele>2130.42</ele>
        <time>2021-02-22T09:57:52Z</time>
      </trkpt>
      <trkpt lat="45.33742" lon="6.63348">
        <ele>2128.98</ele>
        <time>2021-02-22T09:58:06Z</time>
      </trkpt>
      <trkpt lat="45.33734" lon="6.63356">
        <ele>2130.42</ele>
        <time>2021-02-22T09:58:22Z</time>
      </trkpt>
      <trkpt lat="45.33725" lon="6.63362">
        <ele>2128.5</ele>
        <time>2021-02-22T09:58:33Z</time>
      </trkpt>
      <trkpt lat="45.33719" lon="6.63369">
        <ele>2130.42</ele>
        <time>2021-02-22T09:58:54Z</time>
      </trkpt>
      <trkpt lat="45.33709" lon="6.63374">
        <ele>2130.9</ele>
        <time>2021-02-22T09:59:11Z</time>
      </trkpt>
      <trkpt lat="45.33703" lon="6.63383">
        <ele>2131.86</ele>
        <time>2021-02-22T09:59:23Z</time>
      </trkpt>
      <trkpt lat="45.33695" lon="6.63391">
        <ele>2132.82</ele>
        <time>2021-02-22T09:59:35Z</time>
      </trkpt>
      <trkpt lat="45.33689" lon="6.63398">
        <ele>2134.26</ele>
        <time>2021-02-22T09:59:46Z</time>
      </trkpt>
      <trkpt lat="45.3368" lon="6.63404">
        <ele>2136.67</ele>
        <time>2021-02-22T10:00:07Z</time>
      </trkpt>
      <trkpt lat="45.33673" lon="6.6341">
        <ele>2133.78</ele>
        <time>2021-02-22T10:00:18Z</time>
      </trkpt>
      <trkpt lat="45.33667" lon="6.63417">
        <ele>2132.34</ele>
        <time>2021-02-22T10:00:29Z</time>
      </trkpt>
      <trkpt lat="45.33659" lon="6.63425">
        <ele>2134.26</ele>
        <time>2021-02-22T10:00:41Z</time>
      </trkpt>
      <trkpt lat="45.33651" lon="6.63434">
        <ele>2136.19</ele>
        <time>2021-02-22T10:00:54Z</time>
      </trkpt>
      <trkpt lat="45.33644" lon="6.63442">
        <ele>2137.63</ele>
        <time>2021-02-22T10:01:08Z</time>
      </trkpt>
      <trkpt lat="45.33637" lon="6.63449">
        <ele>2138.11</ele>
        <time>2021-02-22T10:01:19Z</time>
      </trkpt>
      <trkpt lat="45.33629" lon="6.63457">
        <ele>2140.51</ele>
        <time>2021-02-22T10:01:32Z</time>
      </trkpt>
      <trkpt lat="45.33622" lon="6.63466">
        <ele>2140.99</ele>
        <time>2021-02-22T10:01:47Z</time>
      </trkpt>
      <trkpt lat="45.33615" lon="6.63473">
        <ele>2140.51</ele>
        <time>2021-02-22T10:01:58Z</time>
      </trkpt>
      <trkpt lat="45.33607" lon="6.63482">
        <ele>2141.47</ele>
        <time>2021-02-22T10:02:11Z</time>
      </trkpt>
      <trkpt lat="45.33601" lon="6.6349">
        <ele>2141.47</ele>
        <time>2021-02-22T10:02:24Z</time>
      </trkpt>
      <trkpt lat="45.33595" lon="6.63497">
        <ele>2142.92</ele>
        <time>2021-02-22T10:02:37Z</time>
      </trkpt>
      <trkpt lat="45.33587" lon="6.63507">
        <ele>2145.8</ele>
        <time>2021-02-22T10:02:54Z</time>
      </trkpt>
      <trkpt lat="45.33579" lon="6.63515">
        <ele>2146.28</ele>
        <time>2021-02-22T10:03:09Z</time>
      </trkpt>
      <trkpt lat="45.33572" lon="6.63523">
        <ele>2146.76</ele>
        <time>2021-02-22T10:03:23Z</time>
      </trkpt>
      <trkpt lat="45.33566" lon="6.63531">
        <ele>2148.2</ele>
        <time>2021-02-22T10:03:39Z</time>
      </trkpt>
      <trkpt lat="45.3356" lon="6.6354">
        <ele>2150.13</ele>
        <time>2021-02-22T10:03:53Z</time>
      </trkpt>
      <trkpt lat="45.33554" lon="6.63549">
        <ele>2153.01</ele>
        <time>2021-02-22T10:04:08Z</time>
      </trkpt>
      <trkpt lat="45.3355" lon="6.6356">
        <ele>2154.45</ele>
        <time>2021-02-22T10:04:26Z</time>
      </trkpt>
      <trkpt lat="45.33548" lon="6.63571">
        <ele>2155.89</ele>
        <time>2021-02-22T10:04:37Z</time>
      </trkpt>
      <trkpt lat="45.33545" lon="6.63582">
        <ele>2158.3</ele>
        <time>2021-02-22T10:04:55Z</time>
      </trkpt>
      <trkpt lat="45.33542" lon="6.63595">
        <ele>2160.7</ele>
        <time>2021-02-22T10:05:11Z</time>
      </trkpt>
      <trkpt lat="45.3354" lon="6.63607">
        <ele>2163.58</ele>
        <time>2021-02-22T10:05:36Z</time>
      </trkpt>
      <trkpt lat="45.33534" lon="6.63619">
        <ele>2164.06</ele>
        <time>2021-02-22T10:06:14Z</time>
      </trkpt>
      <trkpt lat="45.33537" lon="6.6363">
        <ele>2165.51</ele>
        <time>2021-02-22T10:06:29Z</time>
      </trkpt>
      <trkpt lat="45.3354" lon="6.6364">
        <ele>2168.39</ele>
        <time>2021-02-22T10:06:46Z</time>
      </trkpt>
      <trkpt lat="45.33536" lon="6.63649">
        <ele>2170.31</ele>
        <time>2021-02-22T10:07:00Z</time>
      </trkpt>
      <trkpt lat="45.33535" lon="6.63662">
        <ele>2173.68</ele>
        <time>2021-02-22T10:07:23Z</time>
      </trkpt>
      <trkpt lat="45.33536" lon="6.63674">
        <ele>2175.6</ele>
        <time>2021-02-22T10:07:40Z</time>
      </trkpt>
      <trkpt lat="45.33536" lon="6.63685">
        <ele>2179.93</ele>
        <time>2021-02-22T10:08:00Z</time>
      </trkpt>
      <trkpt lat="45.33536" lon="6.637">
        <ele>2185.69</ele>
        <time>2021-02-22T10:08:27Z</time>
      </trkpt>
      <trkpt lat="45.33532" lon="6.63716">
        <ele>2188.58</ele>
        <time>2021-02-22T10:08:51Z</time>
      </trkpt>
      <trkpt lat="45.33531" lon="6.63728">
        <ele>2189.06</ele>
        <time>2021-02-22T10:09:05Z</time>
      </trkpt>
      <trkpt lat="45.3353" lon="6.6374">
        <ele>2191.46</ele>
        <time>2021-02-22T10:09:22Z</time>
      </trkpt>
      <trkpt lat="45.33527" lon="6.63749">
        <ele>2194.35</ele>
        <time>2021-02-22T10:09:37Z</time>
      </trkpt>
      <trkpt lat="45.33529" lon="6.63759">
        <ele>2194.83</ele>
        <time>2021-02-22T10:09:53Z</time>
      </trkpt>
      <trkpt lat="45.33528" lon="6.63771">
        <ele>2198.67</ele>
        <time>2021-02-22T10:10:13Z</time>
      </trkpt>
      <trkpt lat="45.3352" lon="6.63779">
        <ele>2201.08</ele>
        <time>2021-02-22T10:10:32Z</time>
      </trkpt>
      <trkpt lat="45.33519" lon="6.6379">
        <ele>2204.44</ele>
        <time>2021-02-22T10:10:53Z</time>
      </trkpt>
      <trkpt lat="45.33515" lon="6.63802">
        <ele>2206.36</ele>
        <time>2021-02-22T10:11:17Z</time>
      </trkpt>
      <trkpt lat="45.33508" lon="6.63805">
        <ele>2208.77</ele>
        <time>2021-02-22T10:11:32Z</time>
      </trkpt>
      <trkpt lat="45.335" lon="6.6381">
        <ele>2211.65</ele>
        <time>2021-02-22T10:11:51Z</time>
      </trkpt>
      <trkpt lat="45.33495" lon="6.63819">
        <ele>2215.5</ele>
        <time>2021-02-22T10:12:10Z</time>
      </trkpt>
      <trkpt lat="45.33486" lon="6.63827">
        <ele>2216.94</ele>
        <time>2021-02-22T10:12:35Z</time>
      </trkpt>
      <trkpt lat="45.33486" lon="6.63838">
        <ele>2218.86</ele>
        <time>2021-02-22T10:13:03Z</time>
      </trkpt>
      <trkpt lat="45.33484" lon="6.63848">
        <ele>2222.71</ele>
        <time>2021-02-22T10:13:41Z</time>
      </trkpt>
      <trkpt lat="45.33483" lon="6.6386">
        <ele>2225.11</ele>
        <time>2021-02-22T10:14:06Z</time>
      </trkpt>
      <trkpt lat="45.33485" lon="6.63871">
        <ele>2227.51</ele>
        <time>2021-02-22T10:14:42Z</time>
      </trkpt>
      <trkpt lat="45.3348" lon="6.6387">
        <ele>2227.03</ele>
        <time>2021-02-22T10:17:25Z</time>
      </trkpt>
      <trkpt lat="45.33484" lon="6.63872">
        <ele>2227.99</ele>
        <time>2021-02-22T10:23:48Z</time>
      </trkpt>
      <trkpt lat="45.33483" lon="6.63885">
        <ele>2231.36</ele>
        <time>2021-02-22T10:24:08Z</time>
      </trkpt>
      <trkpt lat="45.33486" lon="6.63898">
        <ele>2234.24</ele>
        <time>2021-02-22T10:24:28Z</time>
      </trkpt>
      <trkpt lat="45.33486" lon="6.63909">
        <ele>2236.16</ele>
        <time>2021-02-22T10:25:02Z</time>
      </trkpt>
      <trkpt lat="45.33483" lon="6.63921">
        <ele>2239.05</ele>
        <time>2021-02-22T10:25:23Z</time>
      </trkpt>
      <trkpt lat="45.33481" lon="6.63931">
        <ele>2240.97</ele>
        <time>2021-02-22T10:25:39Z</time>
      </trkpt>
      <trkpt lat="45.33478" lon="6.63942">
        <ele>2241.93</ele>
        <time>2021-02-22T10:25:56Z</time>
      </trkpt>
      <trkpt lat="45.33477" lon="6.63954">
        <ele>2244.82</ele>
        <time>2021-02-22T10:26:18Z</time>
      </trkpt>
      <trkpt lat="45.33474" lon="6.63967">
        <ele>2247.7</ele>
        <time>2021-02-22T10:26:39Z</time>
      </trkpt>
      <trkpt lat="45.3347" lon="6.63978">
        <ele>2251.06</ele>
        <time>2021-02-22T10:26:59Z</time>
      </trkpt>
      <trkpt lat="45.33469" lon="6.6399">
        <ele>2252.99</ele>
        <time>2021-02-22T10:27:18Z</time>
      </trkpt>
      <trkpt lat="45.33468" lon="6.64001">
        <ele>2255.39</ele>
        <time>2021-02-22T10:28:00Z</time>
      </trkpt>
      <trkpt lat="45.33466" lon="6.64014">
        <ele>2257.79</ele>
        <time>2021-02-22T10:28:18Z</time>
      </trkpt>
      <trkpt lat="45.33463" lon="6.64026">
        <ele>2260.68</ele>
        <time>2021-02-22T10:28:38Z</time>
      </trkpt>
      <trkpt lat="45.3346" lon="6.64037">
        <ele>2263.56</ele>
        <time>2021-02-22T10:28:59Z</time>
      </trkpt>
      <trkpt lat="45.33457" lon="6.64049">
        <ele>2265.96</ele>
        <time>2021-02-22T10:29:18Z</time>
      </trkpt>
      <trkpt lat="45.33456" lon="6.6406">
        <ele>2268.85</ele>
        <time>2021-02-22T10:29:48Z</time>
      </trkpt>
      <trkpt lat="45.3345" lon="6.64065">
        <ele>2270.29</ele>
        <time>2021-02-22T10:30:22Z</time>
      </trkpt>
      <trkpt lat="45.33448" lon="6.64075">
        <ele>2271.73</ele>
        <time>2021-02-22T10:30:35Z</time>
      </trkpt>
      <trkpt lat="45.33445" lon="6.64086">
        <ele>2275.1</ele>
        <time>2021-02-22T10:30:54Z</time>
      </trkpt>
      <trkpt lat="45.33441" lon="6.64097">
        <ele>2277.5</ele>
        <time>2021-02-22T10:31:18Z</time>
      </trkpt>
      <trkpt lat="45.33434" lon="6.64107">
        <ele>2281.35</ele>
        <time>2021-02-22T10:31:38Z</time>
      </trkpt>
      <trkpt lat="45.33428" lon="6.64117">
        <ele>2284.71</ele>
        <time>2021-02-22T10:31:58Z</time>
      </trkpt>
      <trkpt lat="45.33423" lon="6.64126">
        <ele>2287.59</ele>
        <time>2021-02-22T10:32:38Z</time>
      </trkpt>
      <trkpt lat="45.33418" lon="6.64132">
        <ele>2289.04</ele>
        <time>2021-02-22T10:32:52Z</time>
      </trkpt>
      <trkpt lat="45.33411" lon="6.64136">
        <ele>2291.44</ele>
        <time>2021-02-22T10:33:07Z</time>
      </trkpt>
      <trkpt lat="45.33401" lon="6.6414">
        <ele>2294.32</ele>
        <time>2021-02-22T10:33:29Z</time>
      </trkpt>
      <trkpt lat="45.33391" lon="6.64147">
        <ele>2297.21</ele>
        <time>2021-02-22T10:33:48Z</time>
      </trkpt>
      <trkpt lat="45.33382" lon="6.64154">
        <ele>2301.05</ele>
        <time>2021-02-22T10:34:10Z</time>
      </trkpt>
      <trkpt lat="45.33376" lon="6.64162">
        <ele>2303.94</ele>
        <time>2021-02-22T10:34:30Z</time>
      </trkpt>
      <trkpt lat="45.33375" lon="6.64176">
        <ele>2305.38</ele>
        <time>2021-02-22T10:34:47Z</time>
      </trkpt>
      <trkpt lat="45.33374" lon="6.64188">
        <ele>2306.82</ele>
        <time>2021-02-22T10:35:02Z</time>
      </trkpt>
      <trkpt lat="45.33373" lon="6.642">
        <ele>2309.7</ele>
        <time>2021-02-22T10:35:28Z</time>
      </trkpt>
      <trkpt lat="45.3337" lon="6.64215">
        <ele>2315.47</ele>
        <time>2021-02-22T10:35:46Z</time>
      </trkpt>
      <trkpt lat="45.33367" lon="6.64226">
        <ele>2314.03</ele>
        <time>2021-02-22T10:35:59Z</time>
      </trkpt>
      <trkpt lat="45.33363" lon="6.64239">
        <ele>2312.59</ele>
        <time>2021-02-22T10:36:17Z</time>
      </trkpt>
      <trkpt lat="45.33358" lon="6.64252">
        <ele>2314.03</ele>
        <time>2021-02-22T10:36:39Z</time>
      </trkpt>
      <trkpt lat="45.33355" lon="6.64267">
        <ele>2316.43</ele>
        <time>2021-02-22T10:36:56Z</time>
      </trkpt>
      <trkpt lat="45.33352" lon="6.64281">
        <ele>2318.36</ele>
        <time>2021-02-22T10:37:13Z</time>
      </trkpt>
      <trkpt lat="45.33348" lon="6.64296">
        <ele>2319.8</ele>
        <time>2021-02-22T10:37:31Z</time>
      </trkpt>
      <trkpt lat="45.33344" lon="6.64308">
        <ele>2321.24</ele>
        <time>2021-02-22T10:37:44Z</time>
      </trkpt>
      <trkpt lat="45.33341" lon="6.64318">
        <ele>2321.72</ele>
        <time>2021-02-22T10:37:54Z</time>
      </trkpt>
      <trkpt lat="45.33338" lon="6.64328">
        <ele>2322.68</ele>
        <time>2021-02-22T10:38:06Z</time>
      </trkpt>
      <trkpt lat="45.33336" lon="6.64338">
        <ele>2324.61</ele>
        <time>2021-02-22T10:38:20Z</time>
      </trkpt>
      <trkpt lat="45.33331" lon="6.6435">
        <ele>2326.53</ele>
        <time>2021-02-22T10:38:37Z</time>
      </trkpt>
      <trkpt lat="45.33327" lon="6.6436">
        <ele>2327.49</ele>
        <time>2021-02-22T10:38:49Z</time>
      </trkpt>
      <trkpt lat="45.33322" lon="6.6437">
        <ele>2329.41</ele>
        <time>2021-02-22T10:39:05Z</time>
      </trkpt>
      <trkpt lat="45.33318" lon="6.6438">
        <ele>2330.37</ele>
        <time>2021-02-22T10:39:17Z</time>
      </trkpt>
      <trkpt lat="45.33313" lon="6.64389">
        <ele>2331.81</ele>
        <time>2021-02-22T10:39:31Z</time>
      </trkpt>
      <trkpt lat="45.33307" lon="6.64399">
        <ele>2332.3</ele>
        <time>2021-02-22T10:39:46Z</time>
      </trkpt>
      <trkpt lat="45.33301" lon="6.64406">
        <ele>2332.78</ele>
        <time>2021-02-22T10:39:56Z</time>
      </trkpt>
      <trkpt lat="45.33297" lon="6.64413">
        <ele>2332.78</ele>
        <time>2021-02-22T10:40:06Z</time>
      </trkpt>
      <trkpt lat="45.33293" lon="6.64421">
        <ele>2334.7</ele>
        <time>2021-02-22T10:40:17Z</time>
      </trkpt>
      <trkpt lat="45.33288" lon="6.64428">
        <ele>2336.14</ele>
        <time>2021-02-22T10:40:28Z</time>
      </trkpt>
      <trkpt lat="45.33284" lon="6.64438">
        <ele>2337.58</ele>
        <time>2021-02-22T10:40:45Z</time>
      </trkpt>
      <trkpt lat="45.3328" lon="6.64451">
        <ele>2338.54</ele>
        <time>2021-02-22T10:40:59Z</time>
      </trkpt>
      <trkpt lat="45.33276" lon="6.64466">
        <ele>2340.47</ele>
        <time>2021-02-22T10:41:17Z</time>
      </trkpt>
      <trkpt lat="45.33273" lon="6.64479">
        <ele>2340.95</ele>
        <time>2021-02-22T10:41:31Z</time>
      </trkpt>
      <trkpt lat="45.33275" lon="6.64489">
        <ele>2343.83</ele>
        <time>2021-02-22T10:42:00Z</time>
      </trkpt>
      <trkpt lat="45.33283" lon="6.64481">
        <ele>2347.68</ele>
        <time>2021-02-22T10:42:20Z</time>
      </trkpt>
      <trkpt lat="45.33292" lon="6.6448">
        <ele>2350.08</ele>
        <time>2021-02-22T10:42:39Z</time>
      </trkpt>
      <trkpt lat="45.33301" lon="6.6448">
        <ele>2352</ele>
        <time>2021-02-22T10:42:56Z</time>
      </trkpt>
      <trkpt lat="45.33304" lon="6.64489">
        <ele>2354.89</ele>
        <time>2021-02-22T10:43:15Z</time>
      </trkpt>
      <trkpt lat="45.33305" lon="6.64501">
        <ele>2357.77</ele>
        <time>2021-02-22T10:43:34Z</time>
      </trkpt>
      <trkpt lat="45.33308" lon="6.64512">
        <ele>2360.17</ele>
        <time>2021-02-22T10:43:53Z</time>
      </trkpt>
      <trkpt lat="45.33308" lon="6.64524">
        <ele>2362.58</ele>
        <time>2021-02-22T10:44:12Z</time>
      </trkpt>
      <trkpt lat="45.3331" lon="6.64538">
        <ele>2365.94</ele>
        <time>2021-02-22T10:44:33Z</time>
      </trkpt>
      <trkpt lat="45.33309" lon="6.64548">
        <ele>2369.79</ele>
        <time>2021-02-22T10:44:55Z</time>
      </trkpt>
      <trkpt lat="45.33315" lon="6.64559">
        <ele>2373.15</ele>
        <time>2021-02-22T10:45:51Z</time>
      </trkpt>
      <trkpt lat="45.33326" lon="6.64556">
        <ele>2377</ele>
        <time>2021-02-22T10:46:13Z</time>
      </trkpt>
      <trkpt lat="45.33335" lon="6.64556">
        <ele>2377.48</ele>
        <time>2021-02-22T10:46:30Z</time>
      </trkpt>
      <trkpt lat="45.33343" lon="6.64553">
        <ele>2379.4</ele>
        <time>2021-02-22T10:46:48Z</time>
      </trkpt>
      <trkpt lat="45.33352" lon="6.64551">
        <ele>2382.76</ele>
        <time>2021-02-22T10:47:09Z</time>
      </trkpt>
      <trkpt lat="45.33357" lon="6.6456">
        <ele>2387.57</ele>
        <time>2021-02-22T10:47:30Z</time>
      </trkpt>
      <trkpt lat="45.33359" lon="6.6457">
        <ele>2390.46</ele>
        <time>2021-02-22T10:47:47Z</time>
      </trkpt>
      <trkpt lat="45.33362" lon="6.64583">
        <ele>2391.9</ele>
        <time>2021-02-22T10:48:08Z</time>
      </trkpt>
      <trkpt lat="45.33364" lon="6.64593">
        <ele>2397.67</ele>
        <time>2021-02-22T10:48:31Z</time>
      </trkpt>
      <trkpt lat="45.3337" lon="6.64606">
        <ele>2400.55</ele>
        <time>2021-02-22T10:48:52Z</time>
      </trkpt>
      <trkpt lat="45.33373" lon="6.64617">
        <ele>2403.43</ele>
        <time>2021-02-22T10:49:08Z</time>
      </trkpt>
      <trkpt lat="45.33373" lon="6.6463">
        <ele>2404.39</ele>
        <time>2021-02-22T10:49:27Z</time>
      </trkpt>
      <trkpt lat="45.33374" lon="6.64641">
        <ele>2405.84</ele>
        <time>2021-02-22T10:49:40Z</time>
      </trkpt>
      <trkpt lat="45.33374" lon="6.64652">
        <ele>2409.2</ele>
        <time>2021-02-22T10:50:00Z</time>
      </trkpt>
      <trkpt lat="45.33374" lon="6.64665">
        <ele>2410.64</ele>
        <time>2021-02-22T10:50:16Z</time>
      </trkpt>
      <trkpt lat="45.33376" lon="6.64677">
        <ele>2412.57</ele>
        <time>2021-02-22T10:50:35Z</time>
      </trkpt>
      <trkpt lat="45.33377" lon="6.64688">
        <ele>2415.45</ele>
        <time>2021-02-22T10:50:51Z</time>
      </trkpt>
      <trkpt lat="45.33374" lon="6.647">
        <ele>2419.3</ele>
        <time>2021-02-22T10:51:12Z</time>
      </trkpt>
      <trkpt lat="45.33376" lon="6.6471">
        <ele>2422.18</ele>
        <time>2021-02-22T10:51:29Z</time>
      </trkpt>
      <trkpt lat="45.33377" lon="6.64726">
        <ele>2426.02</ele>
        <time>2021-02-22T10:51:55Z</time>
      </trkpt>
      <trkpt lat="45.33378" lon="6.6474">
        <ele>2429.87</ele>
        <time>2021-02-22T10:52:19Z</time>
      </trkpt>
      <trkpt lat="45.33379" lon="6.64751">
        <ele>2433.23</ele>
        <time>2021-02-22T10:52:37Z</time>
      </trkpt>
      <trkpt lat="45.3338" lon="6.64764">
        <ele>2436.6</ele>
        <time>2021-02-22T10:52:56Z</time>
      </trkpt>
      <trkpt lat="45.3338" lon="6.64776">
        <ele>2439.96</ele>
        <time>2021-02-22T10:53:15Z</time>
      </trkpt>
      <trkpt lat="45.33379" lon="6.64788">
        <ele>2442.37</ele>
        <time>2021-02-22T10:53:37Z</time>
      </trkpt>
      <trkpt lat="45.33379" lon="6.64801">
        <ele>2443.81</ele>
        <time>2021-02-22T10:53:55Z</time>
      </trkpt>
      <trkpt lat="45.33378" lon="6.64812">
        <ele>2445.25</ele>
        <time>2021-02-22T10:54:11Z</time>
      </trkpt>
      <trkpt lat="45.33378" lon="6.64824">
        <ele>2449.1</ele>
        <time>2021-02-22T10:54:44Z</time>
      </trkpt>
      <trkpt lat="45.33379" lon="6.64827">
        <ele>2451.5</ele>
        <time>2021-02-22T10:55:08Z</time>
      </trkpt>
      <trkpt lat="45.33386" lon="6.64821">
        <ele>2455.34</ele>
        <time>2021-02-22T10:55:40Z</time>
      </trkpt>
      <trkpt lat="45.33386" lon="6.64833">
        <ele>2455.82</ele>
        <time>2021-02-22T10:56:13Z</time>
      </trkpt>
      <trkpt lat="45.33388" lon="6.64846">
        <ele>2460.63</ele>
        <time>2021-02-22T10:56:29Z</time>
      </trkpt>
      <trkpt lat="45.33389" lon="6.64856">
        <ele>2462.07</ele>
        <time>2021-02-22T10:56:49Z</time>
      </trkpt>
      <trkpt lat="45.33391" lon="6.64867">
        <ele>2464.96</ele>
        <time>2021-02-22T10:57:13Z</time>
      </trkpt>
      <trkpt lat="45.33395" lon="6.64881">
        <ele>2467.36</ele>
        <time>2021-02-22T10:57:45Z</time>
      </trkpt>
      <trkpt lat="45.33393" lon="6.64895">
        <ele>2470.73</ele>
        <time>2021-02-22T10:58:07Z</time>
      </trkpt>
      <trkpt lat="45.33393" lon="6.6491">
        <ele>2473.13</ele>
        <time>2021-02-22T10:58:27Z</time>
      </trkpt>
      <trkpt lat="45.33392" lon="6.64928">
        <ele>2477.45</ele>
        <time>2021-02-22T10:58:50Z</time>
      </trkpt>
      <trkpt lat="45.33395" lon="6.64945">
        <ele>2480.34</ele>
        <time>2021-02-22T10:59:11Z</time>
      </trkpt>
      <trkpt lat="45.33395" lon="6.64958">
        <ele>2481.78</ele>
        <time>2021-02-22T10:59:24Z</time>
      </trkpt>
      <trkpt lat="45.33397" lon="6.64971">
        <ele>2481.78</ele>
        <time>2021-02-22T10:59:35Z</time>
      </trkpt>
      <trkpt lat="45.33397" lon="6.64984">
        <ele>2479.86</ele>
        <time>2021-02-22T10:59:45Z</time>
      </trkpt>
      <trkpt lat="45.33394" lon="6.64997">
        <ele>2481.3</ele>
        <time>2021-02-22T10:59:56Z</time>
      </trkpt>
      <trkpt lat="45.33389" lon="6.65009">
        <ele>2481.78</ele>
        <time>2021-02-22T11:00:06Z</time>
      </trkpt>
      <trkpt lat="45.33383" lon="6.65018">
        <ele>2481.78</ele>
        <time>2021-02-22T11:00:16Z</time>
      </trkpt>
      <trkpt lat="45.33379" lon="6.65031">
        <ele>2480.34</ele>
        <time>2021-02-22T11:00:27Z</time>
      </trkpt>
      <trkpt lat="45.33376" lon="6.65043">
        <ele>2479.86</ele>
        <time>2021-02-22T11:00:37Z</time>
      </trkpt>
      <trkpt lat="45.33373" lon="6.65057">
        <ele>2482.26</ele>
        <time>2021-02-22T11:00:50Z</time>
      </trkpt>
      <trkpt lat="45.33369" lon="6.6507">
        <ele>2482.74</ele>
        <time>2021-02-22T11:01:03Z</time>
      </trkpt>
      <trkpt lat="45.33366" lon="6.65083">
        <ele>2482.74</ele>
        <time>2021-02-22T11:01:15Z</time>
      </trkpt>
      <trkpt lat="45.33364" lon="6.65096">
        <ele>2484.66</ele>
        <time>2021-02-22T11:01:29Z</time>
      </trkpt>
      <trkpt lat="45.33362" lon="6.65107">
        <ele>2486.11</ele>
        <time>2021-02-22T11:01:41Z</time>
      </trkpt>
      <trkpt lat="45.3336" lon="6.6512">
        <ele>2488.51</ele>
        <time>2021-02-22T11:01:58Z</time>
      </trkpt>
      <trkpt lat="45.33358" lon="6.65132">
        <ele>2489.47</ele>
        <time>2021-02-22T11:02:15Z</time>
      </trkpt>
      <trkpt lat="45.33355" lon="6.65147">
        <ele>2493.8</ele>
        <time>2021-02-22T11:02:50Z</time>
      </trkpt>
      <trkpt lat="45.33351" lon="6.65159">
        <ele>2499.08</ele>
        <time>2021-02-22T11:03:11Z</time>
      </trkpt>
      <trkpt lat="45.33349" lon="6.65171">
        <ele>2502.45</ele>
        <time>2021-02-22T11:03:31Z</time>
      </trkpt>
      <trkpt lat="45.33347" lon="6.65182">
        <ele>2505.81</ele>
        <time>2021-02-22T11:03:48Z</time>
      </trkpt>
      <trkpt lat="45.33342" lon="6.65193">
        <ele>2508.7</ele>
        <time>2021-02-22T11:04:07Z</time>
      </trkpt>
      <trkpt lat="45.33342" lon="6.65206">
        <ele>2511.58</ele>
        <time>2021-02-22T11:04:29Z</time>
      </trkpt>
      <trkpt lat="45.3334" lon="6.65219">
        <ele>2515.43</ele>
        <time>2021-02-22T11:04:49Z</time>
      </trkpt>
      <trkpt lat="45.33341" lon="6.65232">
        <ele>2518.31</ele>
        <time>2021-02-22T11:05:05Z</time>
      </trkpt>
      <trkpt lat="45.33341" lon="6.65241">
        <ele>2520.23</ele>
        <time>2021-02-22T11:05:20Z</time>
      </trkpt>
      <trkpt lat="45.3334" lon="6.65252">
        <ele>2522.64</ele>
        <time>2021-02-22T11:05:37Z</time>
      </trkpt>
      <trkpt lat="45.33343" lon="6.65262">
        <ele>2526</ele>
        <time>2021-02-22T11:05:51Z</time>
      </trkpt>
      <trkpt lat="45.33343" lon="6.65273">
        <ele>2528.89</ele>
        <time>2021-02-22T11:06:20Z</time>
      </trkpt>
      <trkpt lat="45.33344" lon="6.65286">
        <ele>2529.37</ele>
        <time>2021-02-22T11:06:40Z</time>
      </trkpt>
      <trkpt lat="45.33348" lon="6.65299">
        <ele>2530.33</ele>
        <time>2021-02-22T11:06:56Z</time>
      </trkpt>
      <trkpt lat="45.33354" lon="6.65305">
        <ele>2530.33</ele>
        <time>2021-02-22T11:07:08Z</time>
      </trkpt>
      <trkpt lat="45.33363" lon="6.65309">
        <ele>2532.25</ele>
        <time>2021-02-22T11:07:20Z</time>
      </trkpt>
      <trkpt lat="45.33373" lon="6.65311">
        <ele>2535.61</ele>
        <time>2021-02-22T11:07:39Z</time>
      </trkpt>
      <trkpt lat="45.33381" lon="6.65313">
        <ele>2536.1</ele>
        <time>2021-02-22T11:07:55Z</time>
      </trkpt>
      <trkpt lat="45.33391" lon="6.65318">
        <ele>2534.65</ele>
        <time>2021-02-22T11:08:07Z</time>
      </trkpt>
      <trkpt lat="45.33399" lon="6.65324">
        <ele>2534.17</ele>
        <time>2021-02-22T11:08:19Z</time>
      </trkpt>
      <trkpt lat="45.33407" lon="6.6533">
        <ele>2533.69</ele>
        <time>2021-02-22T11:08:33Z</time>
      </trkpt>
      <trkpt lat="45.33416" lon="6.65333">
        <ele>2532.25</ele>
        <time>2021-02-22T11:08:56Z</time>
      </trkpt>
      <trkpt lat="45.33425" lon="6.65342">
        <ele>2532.25</ele>
        <time>2021-02-22T11:09:05Z</time>
      </trkpt>
      <trkpt lat="45.33431" lon="6.6535">
        <ele>2531.77</ele>
        <time>2021-02-22T11:09:11Z</time>
      </trkpt>
      <trkpt lat="45.33437" lon="6.65358">
        <ele>2531.77</ele>
        <time>2021-02-22T11:09:21Z</time>
      </trkpt>
      <trkpt lat="45.3344" lon="6.65361">
        <ele>2530.81</ele>
        <time>2021-02-22T11:10:26Z</time>
      </trkpt>
      <trkpt lat="45.33441" lon="6.65359">
        <ele>2532.25</ele>
        <time>2021-02-22T11:27:37Z</time>
      </trkpt>
      <trkpt lat="45.33439" lon="6.65361">
        <ele>2532.25</ele>
        <time>2021-02-22T11:33:37Z</time>
      </trkpt>
      <trkpt lat="45.33435" lon="6.65355">
        <ele>2531.29</ele>
        <time>2021-02-22T11:36:11Z</time>
      </trkpt>
      <trkpt lat="45.33436" lon="6.65343">
        <ele>2531.29</ele>
        <time>2021-02-22T11:36:30Z</time>
      </trkpt>
      <trkpt lat="45.33441" lon="6.65332">
        <ele>2531.29</ele>
        <time>2021-02-22T11:36:36Z</time>
      </trkpt>
      <trkpt lat="45.33448" lon="6.65325">
        <ele>2533.21</ele>
        <time>2021-02-22T11:36:48Z</time>
      </trkpt>
      <trkpt lat="45.33453" lon="6.65313">
        <ele>2531.29</ele>
        <time>2021-02-22T11:36:56Z</time>
      </trkpt>
      <trkpt lat="45.33453" lon="6.65301">
        <ele>2528.89</ele>
        <time>2021-02-22T11:37:05Z</time>
      </trkpt>
      <trkpt lat="45.33453" lon="6.65299">
        <ele>2530.33</ele>
        <time>2021-02-22T11:37:56Z</time>
      </trkpt>
      <trkpt lat="45.33451" lon="6.65288">
        <ele>2530.33</ele>
        <time>2021-02-22T11:38:07Z</time>
      </trkpt>
      <trkpt lat="45.33447" lon="6.65278">
        <ele>2532.25</ele>
        <time>2021-02-22T11:38:20Z</time>
      </trkpt>
      <trkpt lat="45.33443" lon="6.65266">
        <ele>2532.25</ele>
        <time>2021-02-22T11:38:28Z</time>
      </trkpt>
      <trkpt lat="45.33438" lon="6.65254">
        <ele>2530.81</ele>
        <time>2021-02-22T11:38:39Z</time>
      </trkpt>
    </trkseg>
  </trk>
</gpx>